Time,TemperatureF,DewpointF,PressureIn,WindDirection,WindDirectionDegrees,WindSpeedMPH,WindSpeedGustMPH,Humidity,HourlyPrecipIn,Conditions,Clouds,dailyrainin,SoftwareType,DateUTC
2013-03-27 00:00:00,24.3,22.0,30.47,North,0,0.0,0.0,91,0.00,,,0.00,VWS V13.01,2013-03-27 05:00:00,
2013-03-27 00:05:00,24.4,22.2,30.47,North,0,0.0,0.0,91,0.00,,,0.00,VWS V13.01,2013-03-27 05:05:00,
2013-03-27 00:10:00,24.3,22.0,30.47,North,0,0.0,0.0,91,0.00,,,0.00,VWS V13.01,2013-03-27 05:10:00,
2013-03-27 00:15:00,24.3,22.0,30.50,North,0,0.0,0.0,91,0.00,,,0.00,VWS V13.01,2013-03-27 05:15:00,
2013-03-27 00:20:00,25.0,22.7,30.50,North,0,0.0,0.0,91,0.00,,,0.00,VWS V13.01,2013-03-27 05:20:00,
2013-03-27 00:21:00,25.0,22.7,30.50,North,0,0.0,0.0,91,0.00,,,0.00,VWS V13.01,2013-03-27 05:21:00,
2013-03-27 00:25:00,24.1,21.8,30.50,North,0,0.0,0.0,91,0.00,,,0.00,VWS V13.01,2013-03-27 05:25:00,
2013-03-27 00:26:00,24.1,21.8,30.50,North,0,0.0,0.0,91,0.00,,,0.00,VWS V13.01,2013-03-27 05:26:00,
2013-03-27 00:30:00,23.9,21.7,30.47,North,0,0.0,0.0,91,0.00,,,0.00,VWS V13.01,2013-03-27 05:30:00,
2013-03-27 00:31:00,23.9,21.7,30.47,North,0,0.0,0.0,91,0.00,,,0.00,VWS V13.01,2013-03-27 05:31:00,
2013-03-27 00:35:00,24.4,22.2,30.47,North,0,0.0,0.0,91,0.00,,,0.00,VWS V13.01,2013-03-27 05:35:00,
2013-03-27 00:36:00,24.4,22.2,30.47,North,0,0.0,0.0,91,0.00,,,0.00,VWS V13.01,2013-03-27 05:36:00,
2013-03-27 00:40:00,24.8,22.5,30.47,North,0,0.0,0.0,91,0.00,,,0.00,VWS V13.01,2013-03-27 05:40:00,
2013-03-27 00:41:00,25.0,22.7,30.47,North,0,0.0,0.0,91,0.00,,,0.00,VWS V13.01,2013-03-27 05:41:00,
2013-03-27 00:45:00,25.5,23.3,30.47,North,0,0.0,0.0,91,0.00,,,0.00,VWS V13.01,2013-03-27 05:45:00,
2013-03-27 00:46:00,25.5,23.3,30.47,North,0,0.0,0.0,91,0.00,,,0.00,VWS V13.01,2013-03-27 05:46:00,
2013-03-27 00:50:00,25.2,22.9,30.47,North,0,0.0,0.0,91,0.00,,,0.00,VWS V13.01,2013-03-27 05:50:00,
2013-03-27 00:51:00,25.2,22.9,30.47,North,0,0.0,0.0,91,0.00,,,0.00,VWS V13.01,2013-03-27 05:51:00,
2013-03-27 00:56:00,24.4,22.2,30.47,North,0,0.0,0.0,91,0.00,,,0.00,VWS V13.01,2013-03-27 05:56:00,
2013-03-27 00:57:00,24.4,22.2,30.47,North,0,0.0,0.0,91,0.00,,,0.00,VWS V13.01,2013-03-27 05:57:00,
2013-03-27 01:01:00,23.7,21.5,30.47,North,0,0.0,0.0,91,0.00,,,0.00,VWS V13.01,2013-03-27 06:01:00,
2013-03-27 01:02:00,23.7,21.5,30.47,North,0,0.0,0.0,91,0.00,,,0.00,VWS V13.01,2013-03-27 06:02:00,
2013-03-27 01:06:00,23.9,21.7,30.47,North,0,0.0,0.0,91,0.00,,,0.00,VWS V13.01,2013-03-27 06:06:00,
2013-03-27 01:07:00,24.1,21.8,30.47,North,0,0.0,0.0,91,0.00,,,0.00,VWS V13.01,2013-03-27 06:07:00,
2013-03-27 01:11:00,24.1,24.1,30.47,North,0,0.0,0.0,100,0.00,,,0.00,VWS V13.01,2013-03-27 06:11:00,
2013-03-27 01:12:00,23.9,23.9,30.47,North,0,0.0,0.0,100,0.00,,,0.00,VWS V13.01,2013-03-27 06:12:00,
2013-03-27 01:16:00,23.7,23.7,30.47,North,0,0.0,0.0,100,0.00,,,0.00,VWS V13.01,2013-03-27 06:16:00,
2013-03-27 01:17:00,23.9,23.9,30.47,North,0,0.0,0.0,100,0.00,,,0.00,VWS V13.01,2013-03-27 06:17:00,
2013-03-27 01:21:00,24.1,24.1,30.47,North,0,0.0,0.0,100,0.00,,,0.00,VWS V13.01,2013-03-27 06:21:00,
2013-03-27 01:22:00,24.1,24.1,30.47,North,0,0.0,0.0,100,0.00,,,0.00,VWS V13.01,2013-03-27 06:22:00,
2013-03-27 01:23:00,24.1,24.1,30.47,North,0,0.0,0.0,100,0.00,,,0.00,VWS V13.01,2013-03-27 06:23:00,
2013-03-27 01:27:00,24.3,24.3,30.47,North,0,0.0,0.0,100,0.00,,,0.00,VWS V13.01,2013-03-27 06:27:00,
2013-03-27 01:28:00,24.3,24.3,30.47,North,0,0.0,0.0,100,0.00,,,0.00,VWS V13.01,2013-03-27 06:28:00,
2013-03-27 01:32:00,24.1,24.1,30.47,North,0,0.0,0.0,100,0.00,,,0.00,VWS V13.01,2013-03-27 06:32:00,
2013-03-27 01:33:00,24.3,24.3,30.47,North,0,0.0,0.0,100,0.00,,,0.00,VWS V13.01,2013-03-27 06:33:00,
2013-03-27 01:37:00,24.4,24.4,30.47,North,0,0.0,0.0,100,0.00,,,0.00,VWS V13.01,2013-03-27 06:37:00,
2013-03-27 01:38:00,24.4,24.4,30.47,North,0,0.0,0.0,100,0.00,,,0.00,VWS V13.01,2013-03-27 06:38:00,
2013-03-27 01:42:00,24.3,24.3,30.47,North,0,0.0,0.0,100,0.00,,,0.00,VWS V13.01,2013-03-27 06:42:00,
2013-03-27 01:43:00,24.3,24.3,30.47,North,0,0.0,0.0,100,0.00,,,0.00,VWS V13.01,2013-03-27 06:43:00,
2013-03-27 01:47:00,24.4,24.4,30.47,North,0,0.0,0.0,100,0.00,,,0.00,VWS V13.01,2013-03-27 06:47:00,
2013-03-27 01:48:00,24.4,24.4,30.47,North,0,0.0,0.0,100,0.00,,,0.00,VWS V13.01,2013-03-27 06:48:00,
2013-03-27 01:52:00,24.4,24.4,30.47,North,0,0.0,0.0,100,0.00,,,0.00,VWS V13.01,2013-03-27 06:52:00,
2013-03-27 01:53:00,24.4,24.4,30.47,North,0,0.0,0.0,100,0.00,,,0.00,VWS V13.01,2013-03-27 06:53:00,
2013-03-27 01:57:00,24.3,24.3,30.47,North,0,0.0,0.0,100,0.00,,,0.00,VWS V13.01,2013-03-27 06:57:00,
2013-03-27 01:58:00,24.3,24.3,30.47,North,0,0.0,0.0,100,0.00,,,0.00,VWS V13.01,2013-03-27 06:58:00,
2013-03-27 02:02:00,24.8,24.8,30.47,North,0,0.0,0.0,100,0.00,,,0.00,VWS V13.01,2013-03-27 07:02:00,
2013-03-27 02:03:00,24.8,24.8,30.47,North,0,0.0,0.0,100,0.00,,,0.00,VWS V13.01,2013-03-27 07:03:00,
2013-03-27 02:07:00,24.8,24.8,30.47,North,0,0.0,0.0,100,0.00,,,0.00,VWS V13.01,2013-03-27 07:07:00,
2013-03-27 02:08:00,25.0,25.0,30.47,North,0,0.0,0.0,100,0.00,,,0.00,VWS V13.01,2013-03-27 07:08:00,
2013-03-27 02:12:00,25.0,25.0,30.50,North,0,0.0,0.0,100,0.00,,,0.00,VWS V13.01,2013-03-27 07:12:00,
2013-03-27 02:13:00,25.0,25.0,30.50,North,0,0.0,0.0,100,0.00,,,0.00,VWS V13.01,2013-03-27 07:13:00,
2013-03-27 02:17:00,25.2,25.2,30.50,North,0,0.0,0.0,100,0.00,,,0.00,VWS V13.01,2013-03-27 07:17:00,
2013-03-27 02:18:00,25.3,25.3,30.50,North,0,0.0,0.0,100,0.00,,,0.00,VWS V13.01,2013-03-27 07:18:00,
2013-03-27 02:22:00,25.0,25.0,30.50,North,0,0.0,0.0,100,0.00,,,0.00,VWS V13.01,2013-03-27 07:22:00,
2013-03-27 02:23:00,25.0,25.0,30.50,North,0,0.0,0.0,100,0.00,,,0.00,VWS V13.01,2013-03-27 07:23:00,
2013-03-27 02:27:00,24.8,24.8,30.50,North,0,0.0,0.0,100,0.00,,,0.00,VWS V13.01,2013-03-27 07:27:00,
2013-03-27 02:28:00,24.8,24.8,30.50,North,0,0.0,0.0,100,0.00,,,0.00,VWS V13.01,2013-03-27 07:28:00,
2013-03-27 02:32:00,24.4,24.4,30.50,North,0,0.0,0.0,100,0.00,,,0.00,VWS V13.01,2013-03-27 07:32:00,
2013-03-27 02:33:00,24.4,24.4,30.50,North,0,0.0,0.0,100,0.00,,,0.00,VWS V13.01,2013-03-27 07:33:00,
2013-03-27 02:34:00,24.4,24.4,30.50,North,0,0.0,0.0,100,0.00,,,0.00,VWS V13.01,2013-03-27 07:34:00,
2013-03-27 02:38:00,24.4,24.4,30.50,North,0,0.0,0.0,100,0.00,,,0.00,VWS V13.01,2013-03-27 07:38:00,
2013-03-27 02:39:00,24.6,24.6,30.50,North,0,0.0,0.0,100,0.00,,,0.00,VWS V13.01,2013-03-27 07:39:00,
2013-03-27 02:43:00,25.0,25.0,30.50,North,0,0.0,0.0,100,0.00,,,0.00,VWS V13.01,2013-03-27 07:43:00,
2013-03-27 02:44:00,25.0,25.0,30.50,North,0,0.0,0.0,100,0.00,,,0.00,VWS V13.01,2013-03-27 07:44:00,
2013-03-27 02:48:00,24.8,24.8,30.50,North,0,0.0,0.0,100,0.00,,,0.00,VWS V13.01,2013-03-27 07:48:00,
2013-03-27 02:49:00,24.8,24.8,30.50,North,0,0.0,0.0,100,0.00,,,0.00,VWS V13.01,2013-03-27 07:49:00,
2013-03-27 02:53:00,24.1,24.1,30.50,North,0,0.0,0.0,100,0.00,,,0.00,VWS V13.01,2013-03-27 07:53:00,
2013-03-27 02:54:00,23.9,23.9,30.50,North,0,0.0,0.0,100,0.00,,,0.00,VWS V13.01,2013-03-27 07:54:00,
2013-03-27 02:58:00,23.7,23.7,30.47,North,0,0.0,0.0,100,0.00,,,0.00,VWS V13.01,2013-03-27 07:58:00,
2013-03-27 02:59:00,23.7,23.7,30.47,North,0,0.0,0.0,100,0.00,,,0.00,VWS V13.01,2013-03-27 07:59:00,
2013-03-27 03:03:00,23.5,23.5,30.47,North,0,0.0,0.0,100,0.00,,,0.00,VWS V13.01,2013-03-27 08:03:00,
2013-03-27 03:04:00,23.4,23.4,30.47,North,0,0.0,0.0,100,0.00,,,0.00,VWS V13.01,2013-03-27 08:04:00,
2013-03-27 03:08:00,23.5,23.5,30.47,North,0,0.0,0.0,100,0.00,,,0.00,VWS V13.01,2013-03-27 08:08:00,
2013-03-27 03:09:00,23.5,23.5,30.47,North,0,0.0,0.0,100,0.00,,,0.00,VWS V13.01,2013-03-27 08:09:00,
2013-03-27 03:13:00,23.5,23.5,30.47,North,0,0.0,0.0,100,0.00,,,0.00,VWS V13.01,2013-03-27 08:13:00,
2013-03-27 03:14:00,23.5,23.5,30.47,North,0,0.0,0.0,100,0.00,,,0.00,VWS V13.01,2013-03-27 08:14:00,
2013-03-27 03:18:00,23.4,23.4,30.47,North,0,0.0,0.0,100,0.00,,,0.00,VWS V13.01,2013-03-27 08:18:00,
2013-03-27 03:19:00,23.4,23.4,30.47,North,0,0.0,0.0,100,0.00,,,0.00,VWS V13.01,2013-03-27 08:19:00,
2013-03-27 03:23:00,23.5,23.5,30.47,North,0,0.0,0.0,100,0.00,,,0.00,VWS V13.01,2013-03-27 08:23:00,
2013-03-27 03:24:00,23.5,23.5,30.47,North,0,0.0,0.0,100,0.00,,,0.00,VWS V13.01,2013-03-27 08:24:00,
2013-03-27 03:28:00,23.5,23.5,30.47,North,0,0.0,0.0,100,0.00,,,0.00,VWS V13.01,2013-03-27 08:28:00,
2013-03-27 03:29:00,23.5,23.5,30.47,North,0,0.0,0.0,100,0.00,,,0.00,VWS V13.01,2013-03-27 08:29:00,
2013-03-27 03:33:00,23.5,23.5,30.47,North,0,0.0,0.0,100,0.00,,,0.00,VWS V13.01,2013-03-27 08:33:00,
2013-03-27 03:34:00,23.5,23.5,30.47,North,0,0.0,0.0,100,0.00,,,0.00,VWS V13.01,2013-03-27 08:34:00,
2013-03-27 03:38:00,23.7,23.7,30.47,North,0,0.0,0.0,100,0.00,,,0.00,VWS V13.01,2013-03-27 08:38:00,
2013-03-27 03:39:00,23.7,23.7,30.47,North,0,0.0,0.0,100,0.00,,,0.00,VWS V13.01,2013-03-27 08:39:00,
2013-03-27 03:43:00,23.7,23.7,30.50,North,0,0.0,0.0,100,0.00,,,0.00,VWS V13.01,2013-03-27 08:43:00,
2013-03-27 03:44:00,23.7,23.7,30.50,North,0,0.0,0.0,100,0.00,,,0.00,VWS V13.01,2013-03-27 08:44:00,
2013-03-27 03:48:00,24.1,24.1,30.50,North,0,0.0,0.0,100,0.00,,,0.00,VWS V13.01,2013-03-27 08:48:00,
2013-03-27 03:49:00,24.3,24.3,30.50,North,0,0.0,0.0,100,0.00,,,0.00,VWS V13.01,2013-03-27 08:49:00,
2013-03-27 03:53:00,23.9,23.9,30.50,North,0,0.0,0.0,100,0.00,,,0.00,VWS V13.01,2013-03-27 08:53:00,
2013-03-27 03:54:00,23.9,23.9,30.50,North,0,0.0,0.0,100,0.00,,,0.00,VWS V13.01,2013-03-27 08:54:00,
2013-03-27 03:58:00,23.7,23.7,30.47,North,0,0.0,0.0,100,0.00,,,0.00,VWS V13.01,2013-03-27 08:58:00,
2013-03-27 03:59:00,23.9,23.9,30.47,North,0,0.0,0.0,100,0.00,,,0.00,VWS V13.01,2013-03-27 08:59:00,
2013-03-27 04:03:00,24.3,24.3,30.47,North,0,0.0,0.0,100,0.00,,,0.00,VWS V13.01,2013-03-27 09:03:00,
2013-03-27 04:04:00,24.3,24.3,30.47,North,0,0.0,0.0,100,0.00,,,0.00,VWS V13.01,2013-03-27 09:04:00,
2013-03-27 04:08:00,24.3,24.3,30.47,North,0,0.0,0.0,100,0.00,,,0.00,VWS V13.01,2013-03-27 09:08:00,
2013-03-27 04:09:00,24.4,24.4,30.47,North,0,0.0,0.0,100,0.00,,,0.00,VWS V13.01,2013-03-27 09:09:00,
2013-03-27 04:13:00,24.6,24.6,30.47,North,0,0.0,0.0,100,0.00,,,0.00,VWS V13.01,2013-03-27 09:13:00,
2013-03-27 04:14:00,24.4,24.4,30.47,North,0,0.0,0.0,100,0.00,,,0.00,VWS V13.01,2013-03-27 09:14:00,
2013-03-27 04:18:00,24.6,24.6,30.47,North,0,0.0,0.0,100,0.00,,,0.00,VWS V13.01,2013-03-27 09:18:00,
2013-03-27 04:19:00,24.8,24.8,30.47,North,0,0.0,0.0,100,0.00,,,0.00,VWS V13.01,2013-03-27 09:19:00,
2013-03-27 04:23:00,25.3,25.3,30.47,North,0,0.0,0.0,100,0.00,,,0.00,VWS V13.01,2013-03-27 09:23:00,
2013-03-27 04:24:00,25.2,25.2,30.47,North,0,0.0,0.0,100,0.00,,,0.00,VWS V13.01,2013-03-27 09:24:00,
2013-03-27 04:28:00,25.5,25.5,30.47,North,0,0.0,0.0,100,0.00,,,0.00,VWS V13.01,2013-03-27 09:28:00,
2013-03-27 04:29:00,25.5,25.5,30.47,North,0,0.0,0.0,100,0.00,,,0.00,VWS V13.01,2013-03-27 09:29:00,
2013-03-27 04:34:00,25.7,25.7,30.47,North,0,0.0,0.0,100,0.00,,,0.00,VWS V13.01,2013-03-27 09:34:00,
2013-03-27 04:35:00,25.7,25.7,30.47,North,0,0.0,0.0,100,0.00,,,0.00,VWS V13.01,2013-03-27 09:35:00,
2013-03-27 04:39:00,25.7,25.7,30.47,North,0,0.0,0.0,100,0.00,,,0.00,VWS V13.01,2013-03-27 09:39:00,
2013-03-27 04:40:00,25.7,25.7,30.47,North,0,0.0,0.0,100,0.00,,,0.00,VWS V13.01,2013-03-27 09:40:00,
2013-03-27 04:44:00,26.1,26.1,30.50,North,0,0.0,0.0,100,0.00,,,0.00,VWS V13.01,2013-03-27 09:44:00,
2013-03-27 04:45:00,26.1,26.1,30.50,North,0,0.0,0.0,100,0.00,,,0.00,VWS V13.01,2013-03-27 09:45:00,
2013-03-27 04:49:00,26.1,26.1,30.50,North,0,0.0,0.0,100,0.00,,,0.00,VWS V13.01,2013-03-27 09:49:00,
2013-03-27 04:50:00,26.1,26.1,30.50,North,0,0.0,0.0,100,0.00,,,0.00,VWS V13.01,2013-03-27 09:50:00,
2013-03-27 04:54:00,26.1,26.1,30.50,North,0,0.0,0.0,100,0.00,,,0.00,VWS V13.01,2013-03-27 09:54:00,
2013-03-27 04:55:00,25.9,25.9,30.50,North,0,0.0,0.0,100,0.00,,,0.00,VWS V13.01,2013-03-27 09:55:00,
2013-03-27 04:59:00,25.7,25.7,30.47,North,0,0.0,0.0,100,0.00,,,0.00,VWS V13.01,2013-03-27 09:59:00,
2013-03-27 05:00:00,25.7,25.7,30.47,North,0,0.0,0.0,100,0.00,,,0.00,VWS V13.01,2013-03-27 10:00:00,
2013-03-27 05:04:00,25.5,25.5,30.47,North,0,0.0,0.0,100,0.00,,,0.00,VWS V13.01,2013-03-27 10:04:00,
2013-03-27 05:05:00,25.7,25.7,30.47,North,0,0.0,0.0,100,0.00,,,0.00,VWS V13.01,2013-03-27 10:05:00,
2013-03-27 05:09:00,25.5,25.5,30.47,North,0,0.0,0.0,100,0.00,,,0.00,VWS V13.01,2013-03-27 10:09:00,
2013-03-27 05:10:00,25.3,25.3,30.47,North,0,0.0,0.0,100,0.00,,,0.00,VWS V13.01,2013-03-27 10:10:00,
2013-03-27 05:14:00,25.2,25.2,30.47,North,0,0.0,0.0,100,0.00,,,0.00,VWS V13.01,2013-03-27 10:14:00,
2013-03-27 05:15:00,25.0,25.0,30.47,North,0,0.0,0.0,100,0.00,,,0.00,VWS V13.01,2013-03-27 10:15:00,
2013-03-27 05:19:00,25.0,25.0,30.47,North,0,0.0,0.0,100,0.00,,,0.00,VWS V13.01,2013-03-27 10:19:00,
2013-03-27 05:20:00,25.0,25.0,30.47,North,0,0.0,0.0,100,0.00,,,0.00,VWS V13.01,2013-03-27 10:20:00,
2013-03-27 05:24:00,25.0,25.0,30.47,North,0,0.0,0.0,100,0.00,,,0.00,VWS V13.01,2013-03-27 10:24:00,
2013-03-27 05:25:00,25.0,25.0,30.47,North,0,0.0,0.0,100,0.00,,,0.00,VWS V13.01,2013-03-27 10:25:00,
2013-03-27 05:29:00,24.8,24.8,30.47,North,0,0.0,0.0,100,0.00,,,0.00,VWS V13.01,2013-03-27 10:29:00,
2013-03-27 05:30:00,24.8,24.8,30.47,North,0,0.0,0.0,100,0.00,,,0.00,VWS V13.01,2013-03-27 10:30:00,
2013-03-27 05:34:00,24.8,24.8,30.47,North,0,0.0,0.0,100,0.00,,,0.00,VWS V13.01,2013-03-27 10:34:00,
2013-03-27 05:35:00,24.6,24.6,30.47,North,0,0.0,0.0,100,0.00,,,0.00,VWS V13.01,2013-03-27 10:35:00,
2013-03-27 05:39:00,24.6,24.6,30.47,North,0,0.0,0.0,100,0.00,,,0.00,VWS V13.01,2013-03-27 10:39:00,
2013-03-27 05:40:00,24.4,24.4,30.47,North,0,0.0,0.0,100,0.00,,,0.00,VWS V13.01,2013-03-27 10:40:00,
2013-03-27 05:44:00,24.4,24.4,30.50,North,0,0.0,0.0,100,0.00,,,0.00,VWS V13.01,2013-03-27 10:44:00,
2013-03-27 05:45:00,24.4,24.4,30.50,North,0,0.0,0.0,100,0.00,,,0.00,VWS V13.01,2013-03-27 10:45:00,
2013-03-27 05:49:00,24.4,24.4,30.50,North,0,0.0,0.0,100,0.00,,,0.00,VWS V13.01,2013-03-27 10:49:00,
2013-03-27 05:50:00,24.4,24.4,30.50,North,0,0.0,0.0,100,0.00,,,0.00,VWS V13.01,2013-03-27 10:50:00,
2013-03-27 05:54:00,24.6,24.6,30.50,North,0,0.0,0.0,100,0.00,,,0.00,VWS V13.01,2013-03-27 10:54:00,
2013-03-27 05:55:00,24.8,24.8,30.50,North,0,0.0,0.0,100,0.00,,,0.00,VWS V13.01,2013-03-27 10:55:00,
2013-03-27 05:59:00,25.0,25.0,30.50,North,0,0.0,0.0,100,0.00,,,0.00,VWS V13.01,2013-03-27 10:59:00,
2013-03-27 06:00:00,25.0,25.0,30.50,North,0,0.0,0.0,100,0.00,,,0.00,VWS V13.01,2013-03-27 11:00:00,
2013-03-27 06:04:00,25.3,25.3,30.50,North,0,0.0,0.0,100,0.00,,,0.00,VWS V13.01,2013-03-27 11:04:00,
2013-03-27 06:05:00,25.3,25.3,30.50,North,0,0.0,0.0,100,0.00,,,0.00,VWS V13.01,2013-03-27 11:05:00,
2013-03-27 06:09:00,25.9,25.9,30.50,North,0,0.0,0.0,100,0.00,,,0.00,VWS V13.01,2013-03-27 11:09:00,
2013-03-27 06:10:00,25.9,25.9,30.50,North,0,0.0,0.0,100,0.00,,,0.00,VWS V13.01,2013-03-27 11:10:00,
2013-03-27 06:14:00,26.1,26.1,30.50,North,0,0.0,0.0,100,0.00,,,0.00,VWS V13.01,2013-03-27 11:14:00,
2013-03-27 06:15:00,26.1,26.1,30.50,North,0,0.0,0.0,100,0.00,,,0.00,VWS V13.01,2013-03-27 11:15:00,
2013-03-27 06:19:00,26.2,26.2,30.50,North,0,0.0,0.0,100,0.00,,,0.00,VWS V13.01,2013-03-27 11:19:00,
2013-03-27 06:20:00,26.2,26.2,30.50,North,0,0.0,0.0,100,0.00,,,0.00,VWS V13.01,2013-03-27 11:20:00,
2013-03-27 06:24:00,26.6,26.6,30.50,North,0,0.0,0.0,100,0.00,,,0.00,VWS V13.01,2013-03-27 11:24:00,
2013-03-27 06:25:00,26.6,26.6,30.50,North,0,0.0,0.0,100,0.00,,,0.00,VWS V13.01,2013-03-27 11:25:00,
2013-03-27 06:29:00,26.8,26.8,30.50,North,0,0.0,0.0,100,0.00,,,0.00,VWS V13.01,2013-03-27 11:29:00,
2013-03-27 06:30:00,26.8,26.8,30.50,North,0,0.0,0.0,100,0.00,,,0.00,VWS V13.01,2013-03-27 11:30:00,
2013-03-27 06:34:00,27.1,27.1,30.50,North,0,0.0,0.0,100,0.00,,,0.00,VWS V13.01,2013-03-27 11:34:00,
2013-03-27 06:35:00,27.1,27.1,30.50,North,0,0.0,0.0,100,0.00,,,0.00,VWS V13.01,2013-03-27 11:35:00,
2013-03-27 06:39:00,27.7,27.7,30.50,North,0,0.0,0.0,100,0.00,,,0.00,VWS V13.01,2013-03-27 11:39:00,
2013-03-27 06:40:00,27.7,27.7,30.50,North,0,0.0,0.0,100,0.00,,,0.00,VWS V13.01,2013-03-27 11:40:00,
2013-03-27 06:44:00,27.9,27.9,30.50,North,0,0.0,0.0,100,0.00,,,0.00,VWS V13.01,2013-03-27 11:44:00,
2013-03-27 06:45:00,27.9,27.9,30.50,North,0,0.0,0.0,100,0.00,,,0.00,VWS V13.01,2013-03-27 11:45:00,
2013-03-27 06:49:00,28.0,28.0,30.50,North,0,0.0,0.0,100,0.00,,,0.00,VWS V13.01,2013-03-27 11:49:00,
2013-03-27 06:50:00,28.0,28.0,30.50,North,0,0.0,0.0,100,0.00,,,0.00,VWS V13.01,2013-03-27 11:50:00,
2013-03-27 06:54:00,28.4,28.4,30.50,North,0,0.0,0.0,100,0.00,,,0.00,VWS V13.01,2013-03-27 11:54:00,
2013-03-27 06:55:00,28.4,28.4,30.50,North,0,0.0,0.0,100,0.00,,,0.00,VWS V13.01,2013-03-27 11:55:00,
2013-03-27 06:59:00,28.6,24.6,30.53,North,0,0.0,0.0,85,0.00,,,0.00,VWS V13.01,2013-03-27 11:59:00,
2013-03-27 07:00:00,28.6,24.6,30.53,North,0,0.0,0.0,85,0.00,,,0.00,VWS V13.01,2013-03-27 12:00:00,
2013-03-27 07:01:00,28.6,24.6,30.53,North,0,0.0,0.0,85,0.00,,,0.00,VWS V13.01,2013-03-27 12:01:00,
2013-03-27 07:04:00,28.6,24.6,30.53,North,0,0.0,0.0,85,0.00,,,0.00,VWS V13.01,2013-03-27 12:04:00,
2013-03-27 07:05:00,28.6,24.6,30.53,North,0,0.0,0.0,85,0.00,,,0.00,VWS V13.01,2013-03-27 12:05:00,
2013-03-27 07:06:00,28.6,24.6,30.53,North,0,0.0,0.0,85,0.00,,,0.00,VWS V13.01,2013-03-27 12:06:00,
2013-03-27 07:09:00,28.4,24.5,30.53,North,0,0.0,0.0,85,0.00,,,0.00,VWS V13.01,2013-03-27 12:09:00,
2013-03-27 07:10:00,28.4,24.5,30.53,North,0,0.0,0.0,85,0.00,,,0.00,VWS V13.01,2013-03-27 12:10:00,
2013-03-27 07:11:00,28.4,24.5,30.53,North,0,0.0,0.0,85,0.00,,,0.00,VWS V13.01,2013-03-27 12:11:00,
2013-03-27 07:14:00,28.6,24.6,30.50,North,0,0.0,0.0,85,0.00,,,0.00,VWS V13.01,2013-03-27 12:14:00,
2013-03-27 07:15:00,28.6,24.6,30.50,North,0,0.0,0.0,85,0.00,,,0.00,VWS V13.01,2013-03-27 12:15:00,
2013-03-27 07:16:00,28.6,24.6,30.50,North,0,0.0,0.0,85,0.00,,,0.00,VWS V13.01,2013-03-27 12:16:00,
2013-03-27 07:20:00,28.6,24.6,30.50,North,0,0.0,0.0,85,0.00,,,0.00,VWS V13.01,2013-03-27 12:20:00,
2013-03-27 07:21:00,28.6,24.6,30.50,North,0,0.0,0.0,85,0.00,,,0.00,VWS V13.01,2013-03-27 12:21:00,
2013-03-27 07:25:00,28.8,24.8,30.50,North,0,0.0,0.0,85,0.00,,,0.00,VWS V13.01,2013-03-27 12:25:00,
2013-03-27 07:26:00,28.8,24.8,30.53,North,0,0.0,0.0,85,0.00,,,0.00,VWS V13.01,2013-03-27 12:26:00,
2013-03-27 07:30:00,28.9,25.0,30.53,North,0,0.0,0.0,85,0.00,,,0.00,VWS V13.01,2013-03-27 12:30:00,
2013-03-27 07:31:00,28.9,25.0,30.53,North,0,0.0,0.0,85,0.00,,,0.00,VWS V13.01,2013-03-27 12:31:00,
2013-03-27 07:35:00,29.1,25.2,30.53,North,0,0.0,0.0,85,0.00,,,0.00,VWS V13.01,2013-03-27 12:35:00,
2013-03-27 07:36:00,29.1,25.2,30.53,North,0,0.0,0.0,85,0.00,,,0.00,VWS V13.01,2013-03-27 12:36:00,
2013-03-27 07:40:00,29.3,25.4,30.53,North,0,0.0,0.0,85,0.00,,,0.00,VWS V13.01,2013-03-27 12:40:00,
2013-03-27 07:41:00,29.3,25.4,30.53,North,0,0.0,0.0,85,0.00,,,0.00,VWS V13.01,2013-03-27 12:41:00,
2013-03-27 07:45:00,29.7,25.7,30.50,North,0,0.0,0.0,85,0.00,,,0.00,VWS V13.01,2013-03-27 12:45:00,
2013-03-27 07:46:00,29.7,25.7,30.50,North,0,0.0,0.0,85,0.00,,,0.00,VWS V13.01,2013-03-27 12:46:00,
2013-03-27 07:47:00,29.7,25.7,30.50,North,0,0.0,0.0,85,0.00,,,0.00,VWS V13.01,2013-03-27 12:47:00,
2013-03-27 07:50:00,30.0,26.1,30.50,North,0,0.0,0.0,85,0.00,,,0.00,VWS V13.01,2013-03-27 12:50:00,
2013-03-27 07:51:00,30.0,26.1,30.50,North,0,0.0,0.0,85,0.00,,,0.00,VWS V13.01,2013-03-27 12:51:00,
2013-03-27 07:52:00,30.0,26.1,30.50,North,0,0.0,0.0,85,0.00,,,0.00,VWS V13.01,2013-03-27 12:52:00,
2013-03-27 07:55:00,30.2,26.2,30.50,North,0,0.0,0.0,85,0.00,,,0.00,VWS V13.01,2013-03-27 12:55:00,
2013-03-27 07:56:00,30.2,26.2,30.50,North,0,0.0,0.0,85,0.00,,,0.00,VWS V13.01,2013-03-27 12:56:00,
2013-03-27 07:57:00,30.2,26.2,30.53,North,0,0.0,0.0,85,0.00,,,0.00,VWS V13.01,2013-03-27 12:57:00,
2013-03-27 08:00:00,30.4,26.4,30.53,North,0,0.0,0.0,85,0.00,,,0.00,VWS V13.01,2013-03-27 13:00:00,
2013-03-27 08:01:00,30.4,26.4,30.53,North,0,0.0,0.0,85,0.00,,,0.00,VWS V13.01,2013-03-27 13:01:00,
2013-03-27 08:02:00,30.4,26.4,30.53,North,0,0.0,0.0,85,0.00,,,0.00,VWS V13.01,2013-03-27 13:02:00,
2013-03-27 08:05:00,30.6,26.6,30.53,North,0,0.0,0.0,85,0.00,,,0.00,VWS V13.01,2013-03-27 13:05:00,
2013-03-27 08:06:00,30.6,26.6,30.53,North,0,0.0,0.0,85,0.00,,,0.00,VWS V13.01,2013-03-27 13:06:00,
2013-03-27 08:07:00,30.7,26.8,30.53,North,0,0.0,0.0,85,0.00,,,0.00,VWS V13.01,2013-03-27 13:07:00,
2013-03-27 08:10:00,30.9,27.0,30.53,North,0,0.0,0.0,85,0.00,,,0.00,VWS V13.01,2013-03-27 13:10:00,
2013-03-27 08:11:00,30.9,27.0,30.53,North,0,0.0,0.0,85,0.00,,,0.00,VWS V13.01,2013-03-27 13:11:00,
2013-03-27 08:12:00,31.1,27.1,30.50,North,0,0.0,0.0,85,0.00,,,0.00,VWS V13.01,2013-03-27 13:12:00,
2013-03-27 08:15:00,31.6,27.7,30.50,North,0,0.0,0.0,85,0.00,,,0.00,VWS V13.01,2013-03-27 13:15:00,
2013-03-27 08:16:00,31.6,27.7,30.50,North,0,0.0,0.0,85,0.00,,,0.00,VWS V13.01,2013-03-27 13:16:00,
2013-03-27 08:17:00,31.8,27.8,30.50,North,0,0.0,0.0,85,0.00,,,0.00,VWS V13.01,2013-03-27 13:17:00,
2013-03-27 08:20:00,32.7,28.7,30.50,North,0,0.0,0.0,85,0.00,,,0.00,VWS V13.01,2013-03-27 13:20:00,
2013-03-27 08:21:00,32.7,28.7,30.50,North,0,0.0,0.0,85,0.00,,,0.00,VWS V13.01,2013-03-27 13:21:00,
2013-03-27 08:22:00,32.9,28.9,30.50,North,0,0.0,0.0,85,0.00,,,0.00,VWS V13.01,2013-03-27 13:22:00,
2013-03-27 08:25:00,33.4,29.4,30.50,North,0,0.0,0.0,85,0.00,,,0.00,VWS V13.01,2013-03-27 13:25:00,
2013-03-27 08:26:00,33.4,29.4,30.53,North,0,0.0,0.0,85,0.00,,,0.00,VWS V13.01,2013-03-27 13:26:00,
2013-03-27 08:28:00,33.3,29.2,30.53,North,0,0.0,0.0,85,0.00,,,0.00,VWS V13.01,2013-03-27 13:28:00,
2013-03-27 08:30:00,33.6,29.6,30.53,North,0,0.0,0.0,85,0.00,,,0.00,VWS V13.01,2013-03-27 13:30:00,
2013-03-27 08:32:00,33.6,29.6,30.53,North,0,0.0,0.0,85,0.00,,,0.00,VWS V13.01,2013-03-27 13:32:00,
2013-03-27 08:33:00,33.8,28.0,30.53,North,0,0.0,0.0,79,0.00,,,0.00,VWS V13.01,2013-03-27 13:33:00,
2013-03-27 08:36:00,33.4,29.4,30.53,North,0,0.0,0.0,85,0.00,,,0.00,VWS V13.01,2013-03-27 13:36:00,
2013-03-27 08:37:00,33.4,29.4,30.53,North,0,0.0,0.0,85,0.00,,,0.00,VWS V13.01,2013-03-27 13:37:00,
2013-03-27 08:38:00,33.3,29.2,30.53,North,0,0.0,0.0,85,0.00,,,0.00,VWS V13.01,2013-03-27 13:38:00,
2013-03-27 08:41:00,33.1,29.1,30.53,North,0,0.0,0.0,85,0.00,,,0.00,VWS V13.01,2013-03-27 13:41:00,
2013-03-27 08:42:00,33.3,29.2,30.53,North,0,0.0,0.0,85,0.00,,,0.00,VWS V13.01,2013-03-27 13:42:00,
2013-03-27 08:43:00,33.1,29.1,30.53,North,0,0.0,0.0,85,0.00,,,0.00,VWS V13.01,2013-03-27 13:43:00,
2013-03-27 08:46:00,33.1,29.1,30.53,North,0,0.0,0.0,85,0.00,,,0.00,VWS V13.01,2013-03-27 13:46:00,
2013-03-27 08:47:00,33.1,29.1,30.53,North,0,0.0,0.0,85,0.00,,,0.00,VWS V13.01,2013-03-27 13:47:00,
2013-03-27 08:48:00,33.1,29.1,30.53,North,0,0.0,0.0,85,0.00,,,0.00,VWS V13.01,2013-03-27 13:48:00,
2013-03-27 08:51:00,33.3,29.2,30.53,North,0,0.0,0.0,85,0.00,,,0.00,VWS V13.01,2013-03-27 13:51:00,
2013-03-27 08:52:00,33.4,29.4,30.53,North,0,0.0,0.0,85,0.00,,,0.00,VWS V13.01,2013-03-27 13:52:00,
2013-03-27 08:53:00,33.4,29.4,30.53,North,0,0.0,0.0,85,0.00,,,0.00,VWS V13.01,2013-03-27 13:53:00,
2013-03-27 08:56:00,33.6,29.6,30.53,North,0,0.0,0.0,85,0.00,,,0.00,VWS V13.01,2013-03-27 13:56:00,
2013-03-27 08:57:00,33.6,29.6,30.53,North,0,0.0,0.0,85,0.00,,,0.00,VWS V13.01,2013-03-27 13:57:00,
2013-03-27 08:58:00,33.6,29.6,30.53,North,0,0.0,0.0,85,0.00,,,0.00,VWS V13.01,2013-03-27 13:58:00,
2013-03-27 09:01:00,33.8,28.0,30.53,North,0,0.0,0.0,79,0.00,,,0.00,VWS V13.01,2013-03-27 14:01:00,
2013-03-27 09:02:00,33.6,29.6,30.53,North,0,0.0,0.0,85,0.00,,,0.00,VWS V13.01,2013-03-27 14:02:00,
2013-03-27 09:03:00,33.8,28.0,30.53,North,0,0.0,0.0,79,0.00,,,0.00,VWS V13.01,2013-03-27 14:03:00,
2013-03-27 09:06:00,34.0,28.2,30.53,North,0,0.0,0.0,79,0.00,,,0.00,VWS V13.01,2013-03-27 14:06:00,
2013-03-27 09:07:00,34.0,28.2,30.53,North,0,0.0,0.0,79,0.00,,,0.00,VWS V13.01,2013-03-27 14:07:00,
2013-03-27 09:08:00,34.0,28.2,30.53,North,0,0.0,0.0,79,0.00,,,0.00,VWS V13.01,2013-03-27 14:08:00,
2013-03-27 09:12:00,34.0,28.2,30.53,North,0,0.0,0.0,79,0.00,,,0.00,VWS V13.01,2013-03-27 14:12:00,
2013-03-27 09:13:00,34.0,28.2,30.53,North,0,0.0,0.0,79,0.00,,,0.00,VWS V13.01,2013-03-27 14:13:00,
2013-03-27 09:17:00,34.0,28.2,30.53,North,0,0.0,0.0,79,0.00,,,0.00,VWS V13.01,2013-03-27 14:17:00,
2013-03-27 09:18:00,34.2,28.3,30.53,North,0,0.0,0.0,79,0.00,,,0.00,VWS V13.01,2013-03-27 14:18:00,
2013-03-27 09:22:00,34.2,28.3,30.53,North,0,0.0,0.0,79,0.00,,,0.00,VWS V13.01,2013-03-27 14:22:00,
2013-03-27 09:23:00,34.2,28.3,30.53,North,0,0.0,0.0,79,0.00,,,0.00,VWS V13.01,2013-03-27 14:23:00,
2013-03-27 09:27:00,34.2,28.3,30.50,North,0,0.0,0.0,79,0.00,,,0.00,VWS V13.01,2013-03-27 14:27:00,
2013-03-27 09:28:00,34.0,28.2,30.50,North,0,0.0,0.0,79,0.00,,,0.00,VWS V13.01,2013-03-27 14:28:00,
2013-03-27 09:32:00,34.2,28.3,30.50,North,0,0.0,0.0,79,0.00,,,0.00,VWS V13.01,2013-03-27 14:32:00,
2013-03-27 09:33:00,34.2,28.3,30.50,North,0,0.0,0.0,79,0.00,,,0.00,VWS V13.01,2013-03-27 14:33:00,
2013-03-27 09:37:00,34.3,28.5,30.50,North,0,0.0,0.0,79,0.00,,,0.00,VWS V13.01,2013-03-27 14:37:00,
2013-03-27 09:38:00,34.2,28.3,30.50,North,0,0.0,0.0,79,0.00,,,0.00,VWS V13.01,2013-03-27 14:38:00,
2013-03-27 09:39:00,34.3,28.5,30.50,North,0,0.0,0.0,79,0.00,,,0.00,VWS V13.01,2013-03-27 14:39:00,
2013-03-27 09:42:00,34.3,28.5,30.53,North,0,0.0,0.0,79,0.00,,,0.00,VWS V13.01,2013-03-27 14:42:00,
2013-03-27 09:43:00,34.3,28.5,30.53,North,0,0.0,0.0,79,0.00,,,0.00,VWS V13.01,2013-03-27 14:43:00,
2013-03-27 09:44:00,34.3,28.5,30.53,North,0,0.0,0.0,79,0.00,,,0.00,VWS V13.01,2013-03-27 14:44:00,
2013-03-27 09:47:00,34.3,28.5,30.53,North,0,0.0,0.0,79,0.00,,,0.00,VWS V13.01,2013-03-27 14:47:00,
2013-03-27 09:48:00,34.3,28.5,30.53,North,0,0.0,0.0,79,0.00,,,0.00,VWS V13.01,2013-03-27 14:48:00,
2013-03-27 09:49:00,34.3,28.5,30.53,North,0,0.0,0.0,79,0.00,,,0.00,VWS V13.01,2013-03-27 14:49:00,
2013-03-27 09:52:00,34.5,28.7,30.53,North,0,0.0,0.0,79,0.00,,,0.00,VWS V13.01,2013-03-27 14:52:00,
2013-03-27 09:53:00,34.5,28.7,30.53,North,0,0.0,0.0,79,0.00,,,0.00,VWS V13.01,2013-03-27 14:53:00,
2013-03-27 09:54:00,34.7,28.9,30.53,North,0,0.0,0.0,79,0.00,,,0.00,VWS V13.01,2013-03-27 14:54:00,
2013-03-27 09:57:00,34.7,28.9,30.53,North,0,0.0,0.0,79,0.00,,,0.00,VWS V13.01,2013-03-27 14:57:00,
2013-03-27 09:58:00,34.7,28.9,30.53,North,0,0.0,0.0,79,0.00,,,0.00,VWS V13.01,2013-03-27 14:58:00,
2013-03-27 09:59:00,34.9,29.0,30.53,North,0,0.0,0.0,79,0.00,,,0.00,VWS V13.01,2013-03-27 14:59:00,
2013-03-27 10:02:00,35.2,29.4,30.53,North,0,0.0,0.0,79,0.00,,,0.00,VWS V13.01,2013-03-27 15:02:00,
2013-03-27 10:03:00,35.2,29.4,30.53,North,0,0.0,0.0,79,0.00,,,0.00,VWS V13.01,2013-03-27 15:03:00,
2013-03-27 10:04:00,35.2,29.4,30.53,North,0,0.0,0.0,79,0.00,,,0.00,VWS V13.01,2013-03-27 15:04:00,
2013-03-27 10:08:00,35.8,33.4,30.53,North,0,0.0,0.0,91,0.00,,,0.00,VWS V13.01,2013-03-27 15:08:00,
2013-03-27 10:09:00,36.0,33.6,30.53,North,0,0.0,0.0,91,0.00,,,0.00,VWS V13.01,2013-03-27 15:09:00,
2013-03-27 10:13:00,36.3,34.0,30.50,North,0,0.0,0.0,91,0.00,,,0.00,VWS V13.01,2013-03-27 15:13:00,
2013-03-27 10:14:00,36.3,34.0,30.50,North,0,0.0,0.0,91,0.00,,,0.00,VWS V13.01,2013-03-27 15:14:00,
2013-03-27 10:18:00,36.3,34.0,30.50,North,0,0.0,0.0,91,0.00,,,0.00,VWS V13.01,2013-03-27 15:18:00,
2013-03-27 10:19:00,36.3,34.0,30.50,North,0,0.0,0.0,91,0.00,,,0.00,VWS V13.01,2013-03-27 15:19:00,
2013-03-27 10:23:00,36.3,34.0,30.50,North,0,0.0,0.0,91,0.00,,,0.00,VWS V13.01,2013-03-27 15:23:00,
2013-03-27 10:24:00,36.7,34.3,30.50,North,0,0.0,0.0,91,0.00,,,0.00,VWS V13.01,2013-03-27 15:24:00,
2013-03-27 10:28:00,37.8,35.4,30.53,North,0,0.0,0.0,91,0.00,,,0.00,VWS V13.01,2013-03-27 15:28:00,
2013-03-27 10:29:00,37.9,35.5,30.53,North,0,0.0,0.0,91,0.00,,,0.00,VWS V13.01,2013-03-27 15:29:00,
2013-03-27 10:33:00,38.8,36.4,30.53,North,0,0.0,0.0,91,0.00,,,0.00,VWS V13.01,2013-03-27 15:33:00,
2013-03-27 10:34:00,39.0,36.6,30.53,North,0,0.0,0.0,91,0.00,,,0.00,VWS V13.01,2013-03-27 15:34:00,
2013-03-27 10:35:00,39.2,35.1,30.53,North,0,0.0,0.0,85,0.00,,,0.00,VWS V13.01,2013-03-27 15:35:00,
2013-03-27 10:38:00,39.2,35.1,30.53,North,0,0.0,0.0,85,0.00,,,0.00,VWS V13.01,2013-03-27 15:38:00,
2013-03-27 10:39:00,39.4,35.2,30.53,North,0,0.0,0.0,85,0.00,,,0.00,VWS V13.01,2013-03-27 15:39:00,
2013-03-27 10:40:00,39.4,35.2,30.53,North,0,0.0,0.0,85,0.00,,,0.00,VWS V13.01,2013-03-27 15:40:00,
2013-03-27 10:43:00,40.5,36.3,30.53,North,0,0.0,0.0,85,0.00,,,0.00,VWS V13.01,2013-03-27 15:43:00,
2013-03-27 10:44:00,40.5,36.3,30.53,North,0,0.0,0.0,85,0.00,,,0.00,VWS V13.01,2013-03-27 15:44:00,
2013-03-27 10:45:00,40.3,36.1,30.53,North,0,0.0,0.0,85,0.00,,,0.00,VWS V13.01,2013-03-27 15:45:00,
2013-03-27 10:48:00,39.9,35.8,30.53,North,0,0.0,0.0,85,0.00,,,0.00,VWS V13.01,2013-03-27 15:48:00,
2013-03-27 10:49:00,39.9,35.8,30.53,North,0,0.0,0.0,85,0.00,,,0.00,VWS V13.01,2013-03-27 15:49:00,
2013-03-27 10:50:00,40.3,36.1,30.53,North,0,0.0,0.0,85,0.00,,,0.00,VWS V13.01,2013-03-27 15:50:00,
2013-03-27 10:53:00,40.5,36.3,30.53,North,0,0.0,0.0,85,0.00,,,0.00,VWS V13.01,2013-03-27 15:53:00,
2013-03-27 10:54:00,40.3,36.1,30.53,North,0,0.0,0.0,85,0.00,,,0.00,VWS V13.01,2013-03-27 15:54:00,
2013-03-27 10:55:00,40.1,36.0,30.53,North,0,0.0,0.0,85,0.00,,,0.00,VWS V13.01,2013-03-27 15:55:00,
2013-03-27 10:58:00,40.5,36.3,30.53,North,0,0.0,0.0,85,0.00,,,0.00,VWS V13.01,2013-03-27 15:58:00,
2013-03-27 10:59:00,40.5,36.3,30.53,North,0,0.0,0.0,85,0.00,,,0.00,VWS V13.01,2013-03-27 15:59:00,
2013-03-27 11:00:00,40.3,36.1,30.53,North,0,0.0,0.0,85,0.00,,,0.00,VWS V13.01,2013-03-27 16:00:00,
2013-03-27 11:03:00,39.0,36.6,30.53,North,0,0.0,0.0,91,0.00,,,0.00,VWS V13.01,2013-03-27 16:03:00,
2013-03-27 11:04:00,38.7,36.3,30.53,North,0,0.0,0.0,91,0.00,,,0.00,VWS V13.01,2013-03-27 16:04:00,
2013-03-27 11:05:00,38.7,36.3,30.53,North,0,0.0,0.0,91,0.00,,,0.00,VWS V13.01,2013-03-27 16:05:00,
2013-03-27 11:08:00,38.8,36.4,30.53,North,0,0.0,0.0,91,0.00,,,0.00,VWS V13.01,2013-03-27 16:08:00,
2013-03-27 11:09:00,39.2,35.1,30.53,North,0,0.0,0.0,85,0.00,,,0.00,VWS V13.01,2013-03-27 16:09:00,
2013-03-27 11:10:00,39.4,35.2,30.53,North,0,0.0,0.0,85,0.00,,,0.00,VWS V13.01,2013-03-27 16:10:00,
2013-03-27 11:13:00,39.4,35.2,30.53,North,0,0.0,0.0,85,0.00,,,0.00,VWS V13.01,2013-03-27 16:13:00,
2013-03-27 11:14:00,39.7,35.6,30.53,North,0,0.0,0.0,85,0.00,,,0.00,VWS V13.01,2013-03-27 16:14:00,
2013-03-27 11:15:00,39.7,35.6,30.53,North,0,0.0,0.0,85,0.00,,,0.00,VWS V13.01,2013-03-27 16:15:00,
2013-03-27 11:18:00,39.4,35.2,30.53,North,0,0.0,0.0,85,0.00,,,0.00,VWS V13.01,2013-03-27 16:18:00,
2013-03-27 11:19:00,39.4,35.2,30.53,North,0,0.0,0.0,85,0.00,,,0.00,VWS V13.01,2013-03-27 16:19:00,
2013-03-27 11:20:00,39.2,35.1,30.53,North,0,0.0,0.0,85,0.00,,,0.00,VWS V13.01,2013-03-27 16:20:00,
2013-03-27 11:23:00,39.2,35.1,30.53,North,0,0.0,0.0,85,0.00,,,0.00,VWS V13.01,2013-03-27 16:23:00,
2013-03-27 11:24:00,39.0,36.6,30.53,North,0,0.0,0.0,91,0.00,,,0.00,VWS V13.01,2013-03-27 16:24:00,
2013-03-27 11:25:00,39.2,35.1,30.53,North,0,0.0,0.0,85,0.00,,,0.00,VWS V13.01,2013-03-27 16:25:00,
2013-03-27 11:28:00,39.9,35.8,30.56,North,0,0.0,0.0,85,0.00,,,0.00,VWS V13.01,2013-03-27 16:28:00,
2013-03-27 11:29:00,39.9,35.8,30.56,North,0,0.0,0.0,85,0.00,,,0.00,VWS V13.01,2013-03-27 16:29:00,
2013-03-27 11:30:00,40.1,36.0,30.56,North,0,0.0,0.0,85,0.00,,,0.00,VWS V13.01,2013-03-27 16:30:00,
2013-03-27 11:33:00,39.9,35.8,30.56,North,0,0.0,0.0,85,0.00,,,0.00,VWS V13.01,2013-03-27 16:33:00,
2013-03-27 11:34:00,39.6,35.4,30.56,North,0,0.0,0.0,85,0.00,,,0.00,VWS V13.01,2013-03-27 16:34:00,
2013-03-27 11:35:00,39.2,35.1,30.56,North,0,0.0,0.0,85,0.00,,,0.00,VWS V13.01,2013-03-27 16:35:00,
2013-03-27 11:38:00,39.4,35.2,30.56,North,0,0.0,0.0,85,0.00,,,0.00,VWS V13.01,2013-03-27 16:38:00,
2013-03-27 11:39:00,39.2,35.1,30.56,North,0,0.0,0.0,85,0.00,,,0.00,VWS V13.01,2013-03-27 16:39:00,
2013-03-27 11:40:00,39.6,35.4,30.56,North,0,0.0,0.0,85,0.00,,,0.00,VWS V13.01,2013-03-27 16:40:00,
2013-03-27 11:43:00,40.1,36.0,30.53,North,0,0.0,0.0,85,0.00,,,0.00,VWS V13.01,2013-03-27 16:43:00,
2013-03-27 11:44:00,40.1,36.0,30.53,North,0,0.0,0.0,85,0.00,,,0.00,VWS V13.01,2013-03-27 16:44:00,
2013-03-27 11:45:00,40.5,36.3,30.53,North,0,0.0,0.0,85,0.00,,,0.00,VWS V13.01,2013-03-27 16:45:00,
2013-03-27 11:48:00,40.6,36.5,30.53,North,0,0.0,0.0,85,0.00,,,0.00,VWS V13.01,2013-03-27 16:48:00,
2013-03-27 11:49:00,40.3,36.1,30.53,North,0,0.0,0.0,85,0.00,,,0.00,VWS V13.01,2013-03-27 16:49:00,
2013-03-27 11:50:00,40.3,36.1,30.53,North,0,0.0,0.0,85,0.00,,,0.00,VWS V13.01,2013-03-27 16:50:00,
2013-03-27 11:53:00,40.1,36.0,30.53,North,0,0.0,0.0,85,0.00,,,0.00,VWS V13.01,2013-03-27 16:53:00,
2013-03-27 11:54:00,40.3,36.1,30.53,North,0,0.0,0.0,85,0.00,,,0.00,VWS V13.01,2013-03-27 16:54:00,
2013-03-27 11:56:00,40.5,36.3,30.53,North,0,0.0,0.0,85,0.00,,,0.00,VWS V13.01,2013-03-27 16:56:00,
2013-03-27 11:58:00,40.5,36.3,30.53,North,0,0.0,0.0,85,0.00,,,0.00,VWS V13.01,2013-03-27 16:58:00,
2013-03-27 11:59:00,40.8,36.7,30.53,North,0,0.0,0.0,85,0.00,,,0.00,VWS V13.01,2013-03-27 16:59:00,
2013-03-27 12:01:00,40.6,36.5,30.53,North,0,0.0,0.0,85,0.00,,,0.00,VWS V13.01,2013-03-27 17:01:00,
2013-03-27 12:03:00,40.6,36.5,30.53,North,0,0.0,0.0,85,0.00,,,0.00,VWS V13.01,2013-03-27 17:03:00,
2013-03-27 12:04:00,40.6,36.5,30.53,North,0,0.0,0.0,85,0.00,,,0.00,VWS V13.01,2013-03-27 17:04:00,
2013-03-27 12:06:00,40.8,36.7,30.53,North,0,0.0,0.0,85,0.00,,,0.00,VWS V13.01,2013-03-27 17:06:00,
2013-03-27 12:08:00,40.8,36.7,30.53,North,0,0.0,0.0,85,0.00,,,0.00,VWS V13.01,2013-03-27 17:08:00,
2013-03-27 12:09:00,40.8,36.7,30.53,North,0,0.0,0.0,85,0.00,,,0.00,VWS V13.01,2013-03-27 17:09:00,
2013-03-27 12:11:00,41.0,36.8,30.53,North,0,0.0,0.0,85,0.00,,,0.00,VWS V13.01,2013-03-27 17:11:00,
2013-03-27 12:13:00,41.2,37.0,30.53,North,0,0.0,0.0,85,0.00,,,0.00,VWS V13.01,2013-03-27 17:13:00,
2013-03-27 12:14:00,41.2,37.0,30.53,North,0,0.0,0.0,85,0.00,,,0.00,VWS V13.01,2013-03-27 17:14:00,
2013-03-27 12:16:00,41.2,37.0,30.53,North,0,0.0,0.0,85,0.00,,,0.00,VWS V13.01,2013-03-27 17:16:00,
2013-03-27 12:18:00,41.4,37.2,30.53,North,0,0.0,0.0,85,0.00,,,0.00,VWS V13.01,2013-03-27 17:18:00,
2013-03-27 12:19:00,41.4,37.2,30.53,North,0,0.0,0.0,85,0.00,,,0.00,VWS V13.01,2013-03-27 17:19:00,
2013-03-27 12:21:00,41.5,37.4,30.53,North,0,0.0,0.0,85,0.00,,,0.00,VWS V13.01,2013-03-27 17:21:00,
2013-03-27 12:23:00,42.3,38.1,30.53,North,0,0.0,0.0,85,0.00,,,0.00,VWS V13.01,2013-03-27 17:23:00,
2013-03-27 12:24:00,42.3,38.1,30.53,North,0,0.0,0.0,85,0.00,,,0.00,VWS V13.01,2013-03-27 17:24:00,
2013-03-27 12:26:00,42.4,38.3,30.53,North,0,0.0,0.0,85,0.00,,,0.00,VWS V13.01,2013-03-27 17:26:00,
2013-03-27 12:29:00,42.4,38.3,30.53,North,0,0.0,0.0,85,0.00,,,0.00,VWS V13.01,2013-03-27 17:29:00,
2013-03-27 12:31:00,42.6,38.4,30.53,North,0,0.0,0.0,85,0.00,,,0.00,VWS V13.01,2013-03-27 17:31:00,
2013-03-27 12:34:00,42.8,38.6,30.53,North,0,0.0,0.0,85,0.00,,,0.00,VWS V13.01,2013-03-27 17:34:00,
2013-03-27 12:36:00,43.0,38.8,30.53,North,0,0.0,0.0,85,0.00,,,0.00,VWS V13.01,2013-03-27 17:36:00,
2013-03-27 12:39:00,43.5,39.3,30.53,North,0,0.0,0.0,85,0.00,,,0.00,VWS V13.01,2013-03-27 17:39:00,
2013-03-27 12:42:00,43.3,39.1,30.53,North,0,0.0,0.0,85,0.00,,,0.00,VWS V13.01,2013-03-27 17:42:00,
2013-03-27 12:44:00,43.0,38.8,30.53,North,0,0.0,0.0,85,0.00,,,0.00,VWS V13.01,2013-03-27 17:44:00,
2013-03-27 12:47:00,44.1,39.8,30.53,North,0,0.0,0.0,85,0.00,,,0.00,VWS V13.01,2013-03-27 17:47:00,
2013-03-27 12:49:00,45.5,39.4,30.53,North,0,0.0,0.0,79,0.00,,,0.00,VWS V13.01,2013-03-27 17:49:00,
2013-03-27 12:50:00,45.5,39.4,30.53,North,0,0.0,0.0,79,0.00,,,0.00,VWS V13.01,2013-03-27 17:50:00,
2013-03-27 12:52:00,46.0,39.9,30.53,North,0,0.0,0.0,79,0.00,,,0.00,VWS V13.01,2013-03-27 17:52:00,
2013-03-27 12:54:00,46.4,40.2,30.53,North,0,0.0,0.0,79,0.00,,,0.00,VWS V13.01,2013-03-27 17:54:00,
2013-03-27 12:55:00,46.6,40.4,30.53,North,0,0.0,0.0,79,0.00,,,0.00,VWS V13.01,2013-03-27 17:55:00,
2013-03-27 12:57:00,46.0,39.9,30.53,North,0,0.0,0.0,79,0.00,,,0.00,VWS V13.01,2013-03-27 17:57:00,
2013-03-27 12:59:00,45.9,39.7,30.53,North,0,0.0,0.0,79,0.00,,,0.00,VWS V13.01,2013-03-27 17:59:00,
2013-03-27 13:00:00,46.0,39.9,30.53,North,0,0.0,0.0,79,0.00,,,0.00,VWS V13.01,2013-03-27 18:00:00,
2013-03-27 13:02:00,46.0,39.9,30.53,North,0,0.0,0.0,79,0.00,,,0.00,VWS V13.01,2013-03-27 18:02:00,
2013-03-27 13:04:00,44.8,38.7,30.53,North,0,0.0,0.0,79,0.00,,,0.00,VWS V13.01,2013-03-27 18:04:00,
2013-03-27 13:05:00,45.1,39.0,30.53,North,0,0.0,0.0,79,0.00,,,0.00,VWS V13.01,2013-03-27 18:05:00,
2013-03-27 13:07:00,45.3,39.2,30.53,North,0,0.0,0.0,79,0.00,,,0.00,VWS V13.01,2013-03-27 18:07:00,
2013-03-27 13:09:00,45.7,39.5,30.53,North,0,0.0,0.0,79,0.00,,,0.00,VWS V13.01,2013-03-27 18:09:00,
2013-03-27 13:10:00,45.5,39.4,30.53,North,0,0.0,0.0,79,0.00,,,0.00,VWS V13.01,2013-03-27 18:10:00,
2013-03-27 13:12:00,46.9,40.8,30.53,North,0,0.0,0.0,79,0.00,,,0.00,VWS V13.01,2013-03-27 18:12:00,
2013-03-27 13:14:00,47.7,41.5,30.53,North,0,0.0,0.0,79,0.00,,,0.00,VWS V13.01,2013-03-27 18:14:00,
2013-03-27 13:15:00,47.7,41.5,30.53,North,0,0.0,0.0,79,0.00,,,0.00,VWS V13.01,2013-03-27 18:15:00,
2013-03-27 13:17:00,47.7,41.5,30.53,North,0,0.0,0.0,79,0.00,,,0.00,VWS V13.01,2013-03-27 18:17:00,
2013-03-27 13:19:00,46.4,40.2,30.53,North,0,0.0,0.0,79,0.00,,,0.00,VWS V13.01,2013-03-27 18:19:00,
2013-03-27 13:20:00,46.4,40.2,30.53,North,0,0.0,0.0,79,0.00,,,0.00,VWS V13.01,2013-03-27 18:20:00,
2013-03-27 13:22:00,46.4,40.2,30.53,North,0,0.0,0.0,79,0.00,,,0.00,VWS V13.01,2013-03-27 18:22:00,
2013-03-27 13:24:00,47.1,41.0,30.53,North,0,0.0,0.0,79,0.00,,,0.00,VWS V13.01,2013-03-27 18:24:00,
2013-03-27 13:25:00,47.1,41.0,30.53,North,0,0.0,0.0,79,0.00,,,0.00,VWS V13.01,2013-03-27 18:25:00,
2013-03-27 13:27:00,47.3,41.1,30.53,North,0,0.0,0.0,79,0.00,,,0.00,VWS V13.01,2013-03-27 18:27:00,
2013-03-27 13:29:00,47.7,41.5,30.53,North,0,0.0,0.0,79,0.00,,,0.00,VWS V13.01,2013-03-27 18:29:00,
2013-03-27 13:30:00,47.7,41.5,30.53,North,0,0.0,0.0,79,0.00,,,0.00,VWS V13.01,2013-03-27 18:30:00,
2013-03-27 13:32:00,47.1,41.0,30.53,North,0,0.0,0.0,79,0.00,,,0.00,VWS V13.01,2013-03-27 18:32:00,
2013-03-27 13:34:00,46.8,40.6,30.53,North,0,0.0,0.0,79,0.00,,,0.00,VWS V13.01,2013-03-27 18:34:00,
2013-03-27 13:35:00,46.6,40.4,30.53,North,0,0.0,0.0,79,0.00,,,0.00,VWS V13.01,2013-03-27 18:35:00,
2013-03-27 13:38:00,48.0,41.8,30.53,North,0,0.0,0.0,79,0.00,,,0.00,VWS V13.01,2013-03-27 18:38:00,
2013-03-27 13:39:00,48.7,40.5,30.53,North,0,0.0,0.0,73,0.00,,,0.00,VWS V13.01,2013-03-27 18:39:00,
2013-03-27 13:40:00,49.1,40.8,30.53,North,0,0.0,0.0,73,0.00,,,0.00,VWS V13.01,2013-03-27 18:40:00,
2013-03-27 13:43:00,49.1,40.8,30.53,North,0,0.0,0.0,73,0.00,,,0.00,VWS V13.01,2013-03-27 18:43:00,
2013-03-27 13:44:00,49.3,41.0,30.53,North,0,0.0,0.0,73,0.00,,,0.00,VWS V13.01,2013-03-27 18:44:00,
2013-03-27 13:45:00,49.3,41.0,30.53,North,0,0.0,0.0,73,0.00,,,0.00,VWS V13.01,2013-03-27 18:45:00,
2013-03-27 13:48:00,50.0,41.7,30.53,North,0,0.0,0.0,73,0.00,,,0.00,VWS V13.01,2013-03-27 18:48:00,
2013-03-27 13:49:00,50.2,41.9,30.53,North,0,0.0,0.0,73,0.00,,,0.00,VWS V13.01,2013-03-27 18:49:00,
2013-03-27 13:50:00,50.2,41.9,30.53,North,0,0.0,0.0,73,0.00,,,0.00,VWS V13.01,2013-03-27 18:50:00,
2013-03-27 13:53:00,50.4,42.0,30.53,North,0,0.0,0.0,73,0.00,,,0.00,VWS V13.01,2013-03-27 18:53:00,
2013-03-27 13:54:00,50.2,41.9,30.53,North,0,0.0,0.0,73,0.00,,,0.00,VWS V13.01,2013-03-27 18:54:00,
2013-03-27 13:55:00,50.2,41.9,30.53,North,0,0.0,0.0,73,0.00,,,0.00,VWS V13.01,2013-03-27 18:55:00,
2013-03-27 13:58:00,48.7,40.5,30.53,North,0,0.0,0.0,73,0.00,,,0.00,VWS V13.01,2013-03-27 18:58:00,
2013-03-27 13:59:00,47.7,41.5,30.53,North,0,0.0,0.0,79,0.00,,,0.00,VWS V13.01,2013-03-27 18:59:00,
2013-03-27 14:00:00,47.7,41.5,30.53,North,0,0.0,0.0,79,0.00,,,0.00,VWS V13.01,2013-03-27 19:00:00,
2013-03-27 14:03:00,47.5,41.3,30.53,North,0,0.0,0.0,79,0.00,,,0.00,VWS V13.01,2013-03-27 19:03:00,
2013-03-27 14:04:00,48.4,40.1,30.53,North,0,0.0,0.0,73,0.00,,,0.00,VWS V13.01,2013-03-27 19:04:00,
2013-03-27 14:05:00,48.9,40.7,30.53,North,0,0.0,0.0,73,0.00,,,0.00,VWS V13.01,2013-03-27 19:05:00,
2013-03-27 14:08:00,46.9,40.8,30.53,North,0,0.0,0.0,79,0.00,,,0.00,VWS V13.01,2013-03-27 19:08:00,
2013-03-27 14:10:00,47.7,41.5,30.53,North,0,0.0,0.0,79,0.00,,,0.00,VWS V13.01,2013-03-27 19:10:00,
2013-03-27 14:13:00,47.8,41.7,30.50,North,0,0.0,0.0,79,0.00,,,0.00,VWS V13.01,2013-03-27 19:13:00,
2013-03-27 14:15:00,47.8,41.7,30.50,North,0,0.0,0.0,79,0.00,,,0.00,VWS V13.01,2013-03-27 19:15:00,
2013-03-27 14:18:00,46.8,40.6,30.50,North,0,0.0,0.0,79,0.00,,,0.00,VWS V13.01,2013-03-27 19:18:00,
2013-03-27 14:20:00,47.8,41.7,30.50,North,0,0.0,0.0,79,0.00,,,0.00,VWS V13.01,2013-03-27 19:20:00,
2013-03-27 14:23:00,47.7,41.5,30.50,North,0,0.0,0.0,79,0.00,,,0.00,VWS V13.01,2013-03-27 19:23:00,
2013-03-27 14:25:00,47.5,41.3,30.50,North,0,0.0,0.0,79,0.00,,,0.00,VWS V13.01,2013-03-27 19:25:00,
2013-03-27 14:28:00,48.4,40.1,30.50,North,0,0.0,0.0,73,0.00,,,0.00,VWS V13.01,2013-03-27 19:28:00,
2013-03-27 14:30:00,49.1,40.8,30.50,North,0,0.0,0.0,73,0.00,,,0.00,VWS V13.01,2013-03-27 19:30:00,
2013-03-27 14:33:00,48.7,40.5,30.50,North,0,0.0,0.0,73,0.00,,,0.00,VWS V13.01,2013-03-27 19:33:00,
2013-03-27 14:35:00,49.1,40.8,30.50,North,0,0.0,0.0,73,0.00,,,0.00,VWS V13.01,2013-03-27 19:35:00,
2013-03-27 14:38:00,48.9,40.7,30.50,North,0,0.0,0.0,73,0.00,,,0.00,VWS V13.01,2013-03-27 19:38:00,
2013-03-27 14:40:00,49.3,41.0,30.50,North,0,0.0,0.0,73,0.00,,,0.00,VWS V13.01,2013-03-27 19:40:00,
2013-03-27 14:43:00,48.9,40.7,30.50,North,0,0.0,0.0,73,0.00,,,0.00,VWS V13.01,2013-03-27 19:43:00,
2013-03-27 14:45:00,49.5,41.2,30.50,North,0,0.0,0.0,73,0.00,,,0.00,VWS V13.01,2013-03-27 19:45:00,
2013-03-27 14:48:00,49.6,41.3,30.50,North,0,0.0,0.0,73,0.00,,,0.00,VWS V13.01,2013-03-27 19:48:00,
2013-03-27 14:50:00,49.5,41.2,30.50,North,0,0.0,0.0,73,0.00,,,0.00,VWS V13.01,2013-03-27 19:50:00,
2013-03-27 14:54:00,50.5,42.2,30.50,North,0,0.0,0.0,73,0.00,,,0.00,VWS V13.01,2013-03-27 19:54:00,
2013-03-27 14:55:00,50.7,42.4,30.50,North,0,0.0,0.0,73,0.00,,,0.00,VWS V13.01,2013-03-27 19:55:00,
2013-03-27 14:59:00,49.8,41.5,30.50,North,0,0.0,0.0,73,0.00,,,0.00,VWS V13.01,2013-03-27 19:59:00,
2013-03-27 15:00:00,49.6,41.3,30.50,North,0,0.0,0.0,73,0.00,,,0.00,VWS V13.01,2013-03-27 20:00:00,
2013-03-27 15:04:00,48.9,40.7,30.50,North,0,0.0,0.0,73,0.00,,,0.00,VWS V13.01,2013-03-27 20:04:00,
2013-03-27 15:05:00,49.5,41.2,30.50,North,0,0.0,0.0,73,0.00,,,0.00,VWS V13.01,2013-03-27 20:05:00,
2013-03-27 15:09:00,50.0,41.7,30.50,North,0,0.0,0.0,73,0.00,,,0.00,VWS V13.01,2013-03-27 20:09:00,
2013-03-27 15:10:00,50.2,41.9,30.50,North,0,0.0,0.0,73,0.00,,,0.00,VWS V13.01,2013-03-27 20:10:00,
2013-03-27 15:14:00,49.6,41.3,30.47,North,0,0.0,0.0,73,0.00,,,0.00,VWS V13.01,2013-03-27 20:14:00,
2013-03-27 15:15:00,49.3,41.0,30.47,North,0,0.0,0.0,73,0.00,,,0.00,VWS V13.01,2013-03-27 20:15:00,
2013-03-27 15:19:00,48.9,40.7,30.47,North,0,0.0,0.0,73,0.00,,,0.00,VWS V13.01,2013-03-27 20:19:00,
2013-03-27 15:20:00,49.1,40.8,30.47,North,0,0.0,0.0,73,0.00,,,0.00,VWS V13.01,2013-03-27 20:20:00,
2013-03-27 15:24:00,49.1,40.8,30.47,North,0,0.0,0.0,73,0.00,,,0.00,VWS V13.01,2013-03-27 20:24:00,
2013-03-27 15:25:00,49.1,40.8,30.47,North,0,0.0,0.0,73,0.00,,,0.00,VWS V13.01,2013-03-27 20:25:00,
2013-03-27 15:29:00,49.8,41.5,30.47,North,0,0.0,0.0,73,0.00,,,0.00,VWS V13.01,2013-03-27 20:29:00,
2013-03-27 15:30:00,50.0,41.7,30.47,North,0,0.0,0.0,73,0.00,,,0.00,VWS V13.01,2013-03-27 20:30:00,
2013-03-27 15:31:00,50.0,41.7,30.47,North,0,0.0,0.0,73,0.00,,,0.00,VWS V13.01,2013-03-27 20:31:00,
2013-03-27 15:34:00,50.0,41.7,30.47,North,0,0.0,0.0,73,0.00,,,0.00,VWS V13.01,2013-03-27 20:34:00,
2013-03-27 15:35:00,50.0,41.7,30.47,North,0,0.0,0.0,73,0.00,,,0.00,VWS V13.01,2013-03-27 20:35:00,
2013-03-27 15:36:00,50.4,42.0,30.47,North,0,0.0,0.0,73,0.00,,,0.00,VWS V13.01,2013-03-27 20:36:00,
2013-03-27 15:39:00,49.8,41.5,30.47,North,0,0.0,0.0,73,0.00,,,0.00,VWS V13.01,2013-03-27 20:39:00,
2013-03-27 15:40:00,49.6,41.3,30.47,North,0,0.0,0.0,73,0.00,,,0.00,VWS V13.01,2013-03-27 20:40:00,
2013-03-27 15:41:00,50.0,41.7,30.47,North,0,0.0,0.0,73,0.00,,,0.00,VWS V13.01,2013-03-27 20:41:00,
2013-03-27 15:44:00,49.6,41.3,30.47,North,0,0.0,0.0,73,0.00,,,0.00,VWS V13.01,2013-03-27 20:44:00,
2013-03-27 15:45:00,50.0,41.7,30.47,North,0,0.0,0.0,73,0.00,,,0.00,VWS V13.01,2013-03-27 20:45:00,
2013-03-27 15:46:00,50.0,41.7,30.47,North,0,0.0,0.0,73,0.00,,,0.00,VWS V13.01,2013-03-27 20:46:00,
2013-03-27 15:49:00,50.9,42.6,30.47,North,0,0.0,0.0,73,0.00,,,0.00,VWS V13.01,2013-03-27 20:49:00,
2013-03-27 15:50:00,51.6,43.3,30.47,North,0,0.0,0.0,73,0.00,,,0.00,VWS V13.01,2013-03-27 20:50:00,
2013-03-27 15:51:00,51.6,43.3,30.47,North,0,0.0,0.0,73,0.00,,,0.00,VWS V13.01,2013-03-27 20:51:00,
2013-03-27 15:54:00,50.5,42.2,30.47,North,0,0.0,0.0,73,0.00,,,0.00,VWS V13.01,2013-03-27 20:54:00,
2013-03-27 15:55:00,50.7,42.4,30.47,North,0,0.0,0.0,73,0.00,,,0.00,VWS V13.01,2013-03-27 20:55:00,
2013-03-27 15:56:00,50.7,42.4,30.47,North,0,0.0,0.0,73,0.00,,,0.00,VWS V13.01,2013-03-27 20:56:00,
2013-03-27 15:59:00,50.0,41.7,30.45,North,0,0.0,0.0,73,0.00,,,0.00,VWS V13.01,2013-03-27 20:59:00,
2013-03-27 16:00:00,50.2,41.9,30.45,North,0,0.0,0.0,73,0.00,,,0.00,VWS V13.01,2013-03-27 21:00:00,
2013-03-27 16:01:00,50.4,42.0,30.45,North,0,0.0,0.0,73,0.00,,,0.00,VWS V13.01,2013-03-27 21:01:00,
2013-03-27 16:04:00,50.2,41.9,30.45,North,0,0.0,0.0,73,0.00,,,0.00,VWS V13.01,2013-03-27 21:04:00,
2013-03-27 16:05:00,50.4,42.0,30.45,North,0,0.0,0.0,73,0.00,,,0.00,VWS V13.01,2013-03-27 21:05:00,
2013-03-27 16:06:00,50.2,41.9,30.45,North,0,0.0,0.0,73,0.00,,,0.00,VWS V13.01,2013-03-27 21:06:00,
2013-03-27 16:09:00,50.2,41.9,30.45,North,0,0.0,0.0,73,0.00,,,0.00,VWS V13.01,2013-03-27 21:09:00,
2013-03-27 16:10:00,50.4,42.0,30.45,North,0,0.0,0.0,73,0.00,,,0.00,VWS V13.01,2013-03-27 21:10:00,
2013-03-27 16:11:00,50.5,42.2,30.47,North,0,0.0,0.0,73,0.00,,,0.00,VWS V13.01,2013-03-27 21:11:00,
2013-03-27 16:12:00,50.4,42.0,30.47,North,0,0.0,0.0,73,0.00,,,0.00,VWS V13.01,2013-03-27 21:12:00,
2013-03-27 16:14:00,50.4,42.0,30.47,North,0,0.0,0.0,73,0.00,,,0.00,VWS V13.01,2013-03-27 21:14:00,
2013-03-27 16:15:00,50.2,41.9,30.47,North,0,0.0,0.0,73,0.00,,,0.00,VWS V13.01,2013-03-27 21:15:00,
2013-03-27 16:17:00,50.2,41.9,30.47,North,0,0.0,0.0,73,0.00,,,0.00,VWS V13.01,2013-03-27 21:17:00,
2013-03-27 16:19:00,50.4,42.0,30.47,North,0,0.0,0.0,73,0.00,,,0.00,VWS V13.01,2013-03-27 21:19:00,
2013-03-27 16:20:00,50.5,42.2,30.47,North,0,0.0,0.0,73,0.00,,,0.00,VWS V13.01,2013-03-27 21:20:00,
2013-03-27 16:22:00,50.4,42.0,30.47,North,0,0.0,0.0,73,0.00,,,0.00,VWS V13.01,2013-03-27 21:22:00,
2013-03-27 16:24:00,50.5,42.2,30.47,North,0,0.0,0.0,73,0.00,,,0.00,VWS V13.01,2013-03-27 21:24:00,
2013-03-27 16:25:00,50.9,42.6,30.47,North,0,0.0,0.0,73,0.00,,,0.00,VWS V13.01,2013-03-27 21:25:00,
2013-03-27 16:27:00,50.2,41.9,30.47,North,0,0.0,0.0,73,0.00,,,0.00,VWS V13.01,2013-03-27 21:27:00,
2013-03-27 16:29:00,49.8,41.5,30.47,North,0,0.0,0.0,73,0.00,,,0.00,VWS V13.01,2013-03-27 21:29:00,
2013-03-27 16:30:00,49.8,41.5,30.47,North,0,0.0,0.0,73,0.00,,,0.00,VWS V13.01,2013-03-27 21:30:00,
2013-03-27 16:32:00,49.6,41.3,30.47,North,0,0.0,0.0,73,0.00,,,0.00,VWS V13.01,2013-03-27 21:32:00,
2013-03-27 16:34:00,50.0,41.7,30.47,North,0,0.0,0.0,73,0.00,,,0.00,VWS V13.01,2013-03-27 21:34:00,
2013-03-27 16:35:00,50.2,41.9,30.47,North,0,0.0,0.0,73,0.00,,,0.00,VWS V13.01,2013-03-27 21:35:00,
2013-03-27 16:37:00,50.7,42.4,30.47,North,0,0.0,0.0,73,0.00,,,0.00,VWS V13.01,2013-03-27 21:37:00,
2013-03-27 16:39:00,51.3,42.9,30.47,North,0,0.0,0.0,73,0.00,,,0.00,VWS V13.01,2013-03-27 21:39:00,
2013-03-27 16:40:00,50.7,42.4,30.47,North,0,0.0,0.0,73,0.00,,,0.00,VWS V13.01,2013-03-27 21:40:00,
2013-03-27 16:43:00,50.2,41.9,30.47,North,0,0.0,0.0,73,0.00,,,0.00,VWS V13.01,2013-03-27 21:43:00,
2013-03-27 16:44:00,50.9,42.6,30.47,North,0,0.0,0.0,73,0.00,,,0.00,VWS V13.01,2013-03-27 21:44:00,
2013-03-27 16:45:00,50.7,42.4,30.47,North,0,0.0,0.0,73,0.00,,,0.00,VWS V13.01,2013-03-27 21:45:00,
2013-03-27 16:48:00,51.1,42.7,30.47,North,0,0.0,0.0,73,0.00,,,0.00,VWS V13.01,2013-03-27 21:48:00,
2013-03-27 16:49:00,51.1,42.7,30.47,North,0,0.0,0.0,73,0.00,,,0.00,VWS V13.01,2013-03-27 21:49:00,
2013-03-27 16:50:00,51.3,42.9,30.47,North,0,0.0,0.0,73,0.00,,,0.00,VWS V13.01,2013-03-27 21:50:00,
2013-03-27 16:53:00,50.5,42.2,30.47,North,0,0.0,0.0,73,0.00,,,0.00,VWS V13.01,2013-03-27 21:53:00,
2013-03-27 16:54:00,50.5,42.2,30.47,North,0,0.0,0.0,73,0.00,,,0.00,VWS V13.01,2013-03-27 21:54:00,
2013-03-27 16:55:00,50.2,41.9,30.47,North,0,0.0,0.0,73,0.00,,,0.00,VWS V13.01,2013-03-27 21:55:00,
2013-03-27 16:58:00,49.8,41.5,30.47,North,0,0.0,0.0,73,0.00,,,0.00,VWS V13.01,2013-03-27 21:58:00,
2013-03-27 16:59:00,49.8,41.5,30.47,North,0,0.0,0.0,73,0.00,,,0.00,VWS V13.01,2013-03-27 21:59:00,
2013-03-27 17:00:00,49.8,41.5,30.47,North,0,0.0,0.0,73,0.00,,,0.00,VWS V13.01,2013-03-27 22:00:00,
2013-03-27 17:03:00,49.5,41.2,30.47,North,0,0.0,0.0,73,0.00,,,0.00,VWS V13.01,2013-03-27 22:03:00,
2013-03-27 17:04:00,49.8,41.5,30.47,North,0,0.0,0.0,73,0.00,,,0.00,VWS V13.01,2013-03-27 22:04:00,
2013-03-27 17:05:00,50.0,41.7,30.47,North,0,0.0,0.0,73,0.00,,,0.00,VWS V13.01,2013-03-27 22:05:00,
2013-03-27 17:08:00,50.2,41.9,30.47,North,0,0.0,0.0,73,0.00,,,0.00,VWS V13.01,2013-03-27 22:08:00,
2013-03-27 17:09:00,50.2,41.9,30.47,North,0,0.0,0.0,73,0.00,,,0.00,VWS V13.01,2013-03-27 22:09:00,
2013-03-27 17:10:00,50.2,41.9,30.47,North,0,0.0,0.0,73,0.00,,,0.00,VWS V13.01,2013-03-27 22:10:00,
2013-03-27 17:14:00,50.2,41.9,30.47,North,0,0.0,0.0,73,0.00,,,0.00,VWS V13.01,2013-03-27 22:14:00,
2013-03-27 17:15:00,50.2,41.9,30.47,North,0,0.0,0.0,73,0.00,,,0.00,VWS V13.01,2013-03-27 22:15:00,
2013-03-27 17:19:00,49.8,41.5,30.47,North,0,0.0,0.0,73,0.00,,,0.00,VWS V13.01,2013-03-27 22:19:00,
2013-03-27 17:20:00,49.8,41.5,30.47,North,0,0.0,0.0,73,0.00,,,0.00,VWS V13.01,2013-03-27 22:20:00,
2013-03-27 17:24:00,49.6,41.3,30.47,North,0,0.0,0.0,73,0.00,,,0.00,VWS V13.01,2013-03-27 22:24:00,
2013-03-27 17:25:00,49.5,41.2,30.47,North,0,0.0,0.0,73,0.00,,,0.00,VWS V13.01,2013-03-27 22:25:00,
2013-03-27 17:29:00,49.5,41.2,30.47,North,0,0.0,0.0,73,0.00,,,0.00,VWS V13.01,2013-03-27 22:29:00,
2013-03-27 17:30:00,49.6,41.3,30.47,North,0,0.0,0.0,73,0.00,,,0.00,VWS V13.01,2013-03-27 22:30:00,
2013-03-27 17:34:00,50.0,41.7,30.47,North,0,0.0,0.0,73,0.00,,,0.00,VWS V13.01,2013-03-27 22:34:00,
2013-03-27 17:35:00,49.6,41.3,30.47,North,0,0.0,0.0,73,0.00,,,0.00,VWS V13.01,2013-03-27 22:35:00,
2013-03-27 17:36:00,49.5,41.2,30.47,North,0,0.0,0.0,73,0.00,,,0.00,VWS V13.01,2013-03-27 22:36:00,
2013-03-27 17:39:00,49.5,41.2,30.47,North,0,0.0,0.0,73,0.00,,,0.00,VWS V13.01,2013-03-27 22:39:00,
2013-03-27 17:40:00,49.1,40.8,30.47,North,0,0.0,0.0,73,0.00,,,0.00,VWS V13.01,2013-03-27 22:40:00,
2013-03-27 17:41:00,49.1,40.8,30.47,North,0,0.0,0.0,73,0.00,,,0.00,VWS V13.01,2013-03-27 22:41:00,
2013-03-27 17:44:00,49.3,41.0,30.50,North,0,0.0,0.0,73,0.00,,,0.00,VWS V13.01,2013-03-27 22:44:00,
2013-03-27 17:45:00,49.1,40.8,30.50,North,0,0.0,0.0,73,0.00,,,0.00,VWS V13.01,2013-03-27 22:45:00,
2013-03-27 17:46:00,48.7,40.5,30.50,North,0,0.0,0.0,73,0.00,,,0.00,VWS V13.01,2013-03-27 22:46:00,
2013-03-27 17:49:00,48.7,40.5,30.50,North,0,0.0,0.0,73,0.00,,,0.00,VWS V13.01,2013-03-27 22:49:00,
2013-03-27 17:50:00,48.7,40.5,30.50,North,0,0.0,0.0,73,0.00,,,0.00,VWS V13.01,2013-03-27 22:50:00,
2013-03-27 17:51:00,48.6,40.3,30.50,North,0,0.0,0.0,73,0.00,,,0.00,VWS V13.01,2013-03-27 22:51:00,
2013-03-27 17:54:00,48.4,40.1,30.50,North,0,0.0,0.0,73,0.00,,,0.00,VWS V13.01,2013-03-27 22:54:00,
2013-03-27 17:55:00,48.4,40.1,30.50,North,0,0.0,0.0,73,0.00,,,0.00,VWS V13.01,2013-03-27 22:55:00,
2013-03-27 17:56:00,48.4,40.1,30.50,North,0,0.0,0.0,73,0.00,,,0.00,VWS V13.01,2013-03-27 22:56:00,
2013-03-27 17:59:00,48.4,40.1,30.47,North,0,0.0,0.0,73,0.00,,,0.00,VWS V13.01,2013-03-27 22:59:00,
2013-03-27 18:00:00,48.2,40.0,30.47,North,0,0.0,0.0,73,0.00,,,0.00,VWS V13.01,2013-03-27 23:00:00,
2013-03-27 18:01:00,48.4,40.1,30.47,North,0,0.0,0.0,73,0.00,,,0.00,VWS V13.01,2013-03-27 23:01:00,
2013-03-27 18:04:00,48.4,40.1,30.47,North,0,0.0,0.0,73,0.00,,,0.00,VWS V13.01,2013-03-27 23:04:00,
2013-03-27 18:05:00,48.4,40.1,30.47,North,0,0.0,0.0,73,0.00,,,0.00,VWS V13.01,2013-03-27 23:05:00,
2013-03-27 18:07:00,48.0,41.8,30.47,North,0,0.0,0.0,79,0.00,,,0.00,VWS V13.01,2013-03-27 23:07:00,
2013-03-27 18:09:00,47.8,41.7,30.47,North,0,0.0,0.0,79,0.00,,,0.00,VWS V13.01,2013-03-27 23:09:00,
2013-03-27 18:10:00,47.8,41.7,30.47,North,0,0.0,0.0,79,0.00,,,0.00,VWS V13.01,2013-03-27 23:10:00,
2013-03-27 18:12:00,47.7,41.5,30.47,North,0,0.0,0.0,79,0.00,,,0.00,VWS V13.01,2013-03-27 23:12:00,
2013-03-27 18:14:00,47.7,41.5,30.47,North,0,0.0,0.0,79,0.00,,,0.00,VWS V13.01,2013-03-27 23:14:00,
2013-03-27 18:15:00,47.7,41.5,30.47,North,0,0.0,0.0,79,0.00,,,0.00,VWS V13.01,2013-03-27 23:15:00,
2013-03-27 18:17:00,47.7,41.5,30.47,North,0,0.0,0.0,79,0.00,,,0.00,VWS V13.01,2013-03-27 23:17:00,
2013-03-27 18:19:00,47.5,41.3,30.47,North,0,0.0,0.0,79,0.00,,,0.00,VWS V13.01,2013-03-27 23:19:00,
2013-03-27 18:20:00,47.7,41.5,30.47,North,0,0.0,0.0,79,0.00,,,0.00,VWS V13.01,2013-03-27 23:20:00,
2013-03-27 18:22:00,47.5,41.3,30.47,North,0,0.0,0.0,79,0.00,,,0.00,VWS V13.01,2013-03-27 23:22:00,
2013-03-27 18:24:00,47.5,41.3,30.47,North,0,0.0,0.0,79,0.00,,,0.00,VWS V13.01,2013-03-27 23:24:00,
2013-03-27 18:25:00,47.5,41.3,30.47,North,0,0.0,0.0,79,0.00,,,0.00,VWS V13.01,2013-03-27 23:25:00,
2013-03-27 18:27:00,47.3,41.1,30.47,North,0,0.0,0.0,79,0.00,,,0.00,VWS V13.01,2013-03-27 23:27:00,
2013-03-27 18:29:00,47.3,41.1,30.47,North,0,0.0,0.0,79,0.00,,,0.00,VWS V13.01,2013-03-27 23:29:00,
2013-03-27 18:30:00,47.3,41.1,30.47,North,0,0.0,0.0,79,0.00,,,0.00,VWS V13.01,2013-03-27 23:30:00,
2013-03-27 18:32:00,47.1,41.0,30.47,North,0,0.0,0.0,79,0.00,,,0.00,VWS V13.01,2013-03-27 23:32:00,
2013-03-27 18:34:00,47.1,41.0,30.47,North,0,0.0,0.0,79,0.00,,,0.00,VWS V13.01,2013-03-27 23:34:00,
2013-03-27 18:35:00,46.9,40.8,30.47,North,0,0.0,0.0,79,0.00,,,0.00,VWS V13.01,2013-03-27 23:35:00,
2013-03-27 18:37:00,46.9,40.8,30.47,North,0,0.0,0.0,79,0.00,,,0.00,VWS V13.01,2013-03-27 23:37:00,
2013-03-27 18:39:00,46.8,40.6,30.47,North,0,0.0,0.0,79,0.00,,,0.00,VWS V13.01,2013-03-27 23:39:00,
2013-03-27 18:40:00,46.8,40.6,30.47,North,0,0.0,0.0,79,0.00,,,0.00,VWS V13.01,2013-03-27 23:40:00,
2013-03-27 18:42:00,46.8,40.6,30.47,North,0,0.0,0.0,79,0.00,,,0.00,VWS V13.01,2013-03-27 23:42:00,
2013-03-27 18:44:00,46.6,40.4,30.47,North,0,0.0,0.0,79,0.00,,,0.00,VWS V13.01,2013-03-27 23:44:00,
2013-03-27 18:45:00,46.6,40.4,30.47,North,0,0.0,0.0,79,0.00,,,0.00,VWS V13.01,2013-03-27 23:45:00,
2013-03-27 18:47:00,46.6,40.4,30.47,North,0,0.0,0.0,79,0.00,,,0.00,VWS V13.01,2013-03-27 23:47:00,
2013-03-27 18:49:00,46.4,40.2,30.47,North,0,0.0,0.0,79,0.00,,,0.00,VWS V13.01,2013-03-27 23:49:00,
2013-03-27 18:50:00,46.4,40.2,30.47,North,0,0.0,0.0,79,0.00,,,0.00,VWS V13.01,2013-03-27 23:50:00,
2013-03-27 18:52:00,46.4,40.2,30.47,North,0,0.0,0.0,79,0.00,,,0.00,VWS V13.01,2013-03-27 23:52:00,
2013-03-27 18:55:00,46.4,40.2,30.47,North,0,0.0,0.0,79,0.00,,,0.00,VWS V13.01,2013-03-27 23:55:00,
2013-03-27 18:58:00,46.2,40.1,30.47,North,0,0.0,0.0,79,0.00,,,0.00,VWS V13.01,2013-03-27 23:58:00,
2013-03-27 19:00:00,46.2,40.1,30.47,North,0,0.0,0.0,79,0.00,,,0.00,VWS V13.01,2013-03-28 00:00:00,
2013-03-27 19:03:00,46.2,40.1,30.47,North,0,0.0,0.0,79,0.00,,,0.00,VWS V13.01,2013-03-28 00:03:00,
2013-03-27 19:05:00,46.0,39.9,30.47,North,0,0.0,0.0,79,0.00,,,0.00,VWS V13.01,2013-03-28 00:05:00,
2013-03-27 19:08:00,45.9,39.7,30.47,North,0,0.0,0.0,79,0.00,,,0.00,VWS V13.01,2013-03-28 00:08:00,
2013-03-27 19:10:00,45.7,39.5,30.47,North,0,0.0,0.0,79,0.00,,,0.00,VWS V13.01,2013-03-28 00:10:00,
2013-03-27 19:13:00,45.3,39.2,30.47,North,0,0.0,0.0,79,0.00,,,0.00,VWS V13.01,2013-03-28 00:13:00,
2013-03-27 19:15:00,45.1,39.0,30.47,North,0,0.0,0.0,79,0.00,,,0.00,VWS V13.01,2013-03-28 00:15:00,
2013-03-27 19:18:00,45.0,38.8,30.47,North,0,0.0,0.0,79,0.00,,,0.00,VWS V13.01,2013-03-28 00:18:00,
2013-03-27 19:20:00,44.8,38.7,30.47,North,0,0.0,0.0,79,0.00,,,0.00,VWS V13.01,2013-03-28 00:20:00,
2013-03-27 19:23:00,44.6,38.5,30.47,North,0,0.0,0.0,79,0.00,,,0.00,VWS V13.01,2013-03-28 00:23:00,
2013-03-27 19:25:00,44.4,40.2,30.47,North,0,0.0,0.0,85,0.00,,,0.00,VWS V13.01,2013-03-28 00:25:00,
2013-03-27 19:28:00,44.1,39.8,30.50,North,0,0.0,0.0,85,0.00,,,0.00,VWS V13.01,2013-03-28 00:28:00,
2013-03-27 19:30:00,43.9,39.7,30.50,North,0,0.0,0.0,85,0.00,,,0.00,VWS V13.01,2013-03-28 00:30:00,
2013-03-27 19:33:00,43.5,39.3,30.50,North,0,0.0,0.0,85,0.00,,,0.00,VWS V13.01,2013-03-28 00:33:00,
2013-03-27 19:35:00,43.3,39.1,30.50,North,0,0.0,0.0,85,0.00,,,0.00,VWS V13.01,2013-03-28 00:35:00,
2013-03-27 19:38:00,43.2,39.0,30.50,North,0,0.0,0.0,85,0.00,,,0.00,VWS V13.01,2013-03-28 00:38:00,
2013-03-27 19:40:00,43.0,38.8,30.50,North,0,0.0,0.0,85,0.00,,,0.00,VWS V13.01,2013-03-28 00:40:00,
2013-03-27 19:43:00,43.0,38.8,30.50,North,0,0.0,0.0,85,0.00,,,0.00,VWS V13.01,2013-03-28 00:43:00,
2013-03-27 19:45:00,43.0,38.8,30.50,North,0,0.0,0.0,85,0.00,,,0.00,VWS V13.01,2013-03-28 00:45:00,
2013-03-27 19:48:00,42.6,38.4,30.50,North,0,0.0,0.0,85,0.00,,,0.00,VWS V13.01,2013-03-28 00:48:00,
2013-03-27 19:50:00,42.4,38.3,30.50,North,0,0.0,0.0,85,0.00,,,0.00,VWS V13.01,2013-03-28 00:50:00,
2013-03-27 19:51:00,42.4,38.3,30.50,North,0,0.0,0.0,85,0.00,,,0.00,VWS V13.01,2013-03-28 00:51:00,
2013-03-27 19:53:00,42.3,38.1,30.50,North,0,0.0,0.0,85,0.00,,,0.00,VWS V13.01,2013-03-28 00:53:00,
2013-03-27 19:55:00,42.3,38.1,30.50,North,0,0.0,0.0,85,0.00,,,0.00,VWS V13.01,2013-03-28 00:55:00,
2013-03-27 19:56:00,42.3,38.1,30.50,North,0,0.0,0.0,85,0.00,,,0.00,VWS V13.01,2013-03-28 00:56:00,
2013-03-27 19:58:00,42.1,37.9,30.50,North,0,0.0,0.0,85,0.00,,,0.00,VWS V13.01,2013-03-28 00:58:00,
2013-03-27 20:00:00,41.7,37.5,30.50,North,0,0.0,0.0,85,0.00,,,0.00,VWS V13.01,2013-03-28 01:00:00,
2013-03-27 20:01:00,41.5,37.4,30.50,North,0,0.0,0.0,85,0.00,,,0.00,VWS V13.01,2013-03-28 01:01:00,
2013-03-27 20:03:00,41.5,37.4,30.50,North,0,0.0,0.0,85,0.00,,,0.00,VWS V13.01,2013-03-28 01:03:00,
2013-03-27 20:05:00,41.5,37.4,30.50,North,0,0.0,0.0,85,0.00,,,0.00,VWS V13.01,2013-03-28 01:05:00,
2013-03-27 20:07:00,41.4,37.2,30.50,North,0,0.0,0.0,85,0.00,,,0.00,VWS V13.01,2013-03-28 01:07:00,
2013-03-27 20:08:00,41.2,37.0,30.50,North,0,0.0,0.0,85,0.00,,,0.00,VWS V13.01,2013-03-28 01:08:00,
2013-03-27 20:10:00,41.0,36.8,30.50,North,0,0.0,0.0,85,0.00,,,0.00,VWS V13.01,2013-03-28 01:10:00,
2013-03-27 20:11:00,41.0,36.8,30.50,North,0,0.0,0.0,85,0.00,,,0.00,VWS V13.01,2013-03-28 01:11:00,
2013-03-27 20:12:00,40.8,36.7,30.47,North,0,0.0,0.0,85,0.00,,,0.00,VWS V13.01,2013-03-28 01:12:00,
2013-03-27 20:14:00,40.8,36.7,30.47,North,0,0.0,0.0,85,0.00,,,0.00,VWS V13.01,2013-03-28 01:14:00,
2013-03-27 20:15:00,40.6,36.5,30.47,North,0,0.0,0.0,85,0.00,,,0.00,VWS V13.01,2013-03-28 01:15:00,
2013-03-27 20:16:00,40.6,36.5,30.47,North,0,0.0,0.0,85,0.00,,,0.00,VWS V13.01,2013-03-28 01:16:00,
2013-03-27 20:17:00,40.6,36.5,30.47,North,0,0.0,0.0,85,0.00,,,0.00,VWS V13.01,2013-03-28 01:17:00,
2013-03-27 20:18:00,40.5,36.3,30.47,North,0,0.0,0.0,85,0.00,,,0.00,VWS V13.01,2013-03-28 01:18:00,
2013-03-27 20:20:00,40.3,36.1,30.47,North,0,0.0,0.0,85,0.00,,,0.00,VWS V13.01,2013-03-28 01:20:00,
2013-03-27 20:21:00,40.3,36.1,30.47,North,0,0.0,0.0,85,0.00,,,0.00,VWS V13.01,2013-03-28 01:21:00,
2013-03-27 20:22:00,40.1,36.0,30.47,North,0,0.0,0.0,85,0.00,,,0.00,VWS V13.01,2013-03-28 01:22:00,
2013-03-27 20:23:00,39.9,35.8,30.47,North,0,0.0,0.0,85,0.00,,,0.00,VWS V13.01,2013-03-28 01:23:00,
2013-03-27 20:25:00,39.9,35.8,30.47,North,0,0.0,0.0,85,0.00,,,0.00,VWS V13.01,2013-03-28 01:25:00,
2013-03-27 20:26:00,39.9,35.8,30.47,North,0,0.0,0.0,85,0.00,,,0.00,VWS V13.01,2013-03-28 01:26:00,
2013-03-27 20:27:00,39.9,35.8,30.50,North,0,0.0,0.0,85,0.00,,,0.00,VWS V13.01,2013-03-28 01:27:00,
2013-03-27 20:28:00,39.7,35.6,30.50,North,0,0.0,0.0,85,0.00,,,0.00,VWS V13.01,2013-03-28 01:28:00,
2013-03-27 20:30:00,39.6,35.4,30.50,North,0,0.0,0.0,85,0.00,,,0.00,VWS V13.01,2013-03-28 01:30:00,
2013-03-27 20:31:00,39.4,35.2,30.50,North,0,0.0,0.0,85,0.00,,,0.00,VWS V13.01,2013-03-28 01:31:00,
2013-03-27 20:32:00,39.4,35.2,30.50,North,0,0.0,0.0,85,0.00,,,0.00,VWS V13.01,2013-03-28 01:32:00,
2013-03-27 20:34:00,39.4,35.2,30.50,North,0,0.0,0.0,85,0.00,,,0.00,VWS V13.01,2013-03-28 01:34:00,
2013-03-27 20:35:00,39.4,35.2,30.50,North,0,0.0,0.0,85,0.00,,,0.00,VWS V13.01,2013-03-28 01:35:00,
2013-03-27 20:36:00,39.4,35.2,30.50,North,0,0.0,0.0,85,0.00,,,0.00,VWS V13.01,2013-03-28 01:36:00,
2013-03-27 20:37:00,39.4,35.2,30.50,North,0,0.0,0.0,85,0.00,,,0.00,VWS V13.01,2013-03-28 01:37:00,
2013-03-27 20:38:00,39.7,35.6,30.50,North,0,0.0,0.0,85,0.00,,,0.00,VWS V13.01,2013-03-28 01:38:00,
2013-03-27 20:40:00,39.7,35.6,30.50,North,0,0.0,0.0,85,0.00,,,0.00,VWS V13.01,2013-03-28 01:40:00,
2013-03-27 20:42:00,39.9,35.8,30.50,North,0,0.0,0.0,85,0.00,,,0.00,VWS V13.01,2013-03-28 01:42:00,
2013-03-27 20:43:00,40.5,36.3,30.50,North,0,0.0,0.0,85,0.00,,,0.00,VWS V13.01,2013-03-28 01:43:00,
2013-03-27 20:45:00,40.3,36.1,30.50,North,0,0.0,0.0,85,0.00,,,0.00,VWS V13.01,2013-03-28 01:45:00,
2013-03-27 20:47:00,40.3,36.1,30.50,North,0,0.0,0.0,85,0.00,,,0.00,VWS V13.01,2013-03-28 01:47:00,
2013-03-27 20:48:00,40.3,36.1,30.50,North,0,0.0,0.0,85,0.00,,,0.00,VWS V13.01,2013-03-28 01:48:00,
2013-03-27 20:50:00,40.3,36.1,30.50,North,0,0.0,0.0,85,0.00,,,0.00,VWS V13.01,2013-03-28 01:50:00,
2013-03-27 20:52:00,40.1,36.0,30.50,North,0,0.0,0.0,85,0.00,,,0.00,VWS V13.01,2013-03-28 01:52:00,
2013-03-27 20:53:00,40.1,36.0,30.50,North,0,0.0,0.0,85,0.00,,,0.00,VWS V13.01,2013-03-28 01:53:00,
2013-03-27 20:54:00,40.1,36.0,30.50,North,0,0.0,0.0,85,0.00,,,0.00,VWS V13.01,2013-03-28 01:54:00,
2013-03-27 20:56:00,39.9,35.8,30.50,North,0,0.0,0.0,85,0.00,,,0.00,VWS V13.01,2013-03-28 01:56:00,
2013-03-27 20:57:00,39.7,35.6,30.50,North,0,0.0,0.0,85,0.00,,,0.00,VWS V13.01,2013-03-28 01:57:00,
2013-03-27 20:58:00,39.7,35.6,30.50,North,0,0.0,0.0,85,0.00,,,0.00,VWS V13.01,2013-03-28 01:58:00,
2013-03-27 20:59:00,39.7,35.6,30.50,North,0,0.0,0.0,85,0.00,,,0.00,VWS V13.01,2013-03-28 01:59:00,
2013-03-27 21:02:00,39.6,35.4,30.50,North,0,0.0,0.0,85,0.00,,,0.00,VWS V13.01,2013-03-28 02:02:00,
2013-03-27 21:03:00,39.6,35.4,30.50,North,0,0.0,0.0,85,0.00,,,0.00,VWS V13.01,2013-03-28 02:03:00,
2013-03-27 21:04:00,39.6,35.4,30.50,North,0,0.0,0.0,85,0.00,,,0.00,VWS V13.01,2013-03-28 02:04:00,
2013-03-27 21:07:00,39.6,35.4,30.50,North,0,0.0,0.0,85,0.00,,,0.00,VWS V13.01,2013-03-28 02:07:00,
2013-03-27 21:08:00,39.4,35.2,30.50,North,0,0.0,0.0,85,0.00,,,0.00,VWS V13.01,2013-03-28 02:08:00,
2013-03-27 21:09:00,39.4,35.2,30.50,North,0,0.0,0.0,85,0.00,,,0.00,VWS V13.01,2013-03-28 02:09:00,
2013-03-27 21:12:00,39.4,35.2,30.50,North,0,0.0,0.0,85,0.00,,,0.00,VWS V13.01,2013-03-28 02:12:00,
2013-03-27 21:13:00,39.2,35.1,30.50,North,0,0.0,0.0,85,0.00,,,0.00,VWS V13.01,2013-03-28 02:13:00,
2013-03-27 21:14:00,38.8,36.4,30.50,North,0,0.0,0.0,91,0.00,,,0.00,VWS V13.01,2013-03-28 02:14:00,
2013-03-27 21:17:00,38.7,36.3,30.50,North,0,0.0,0.0,91,0.00,,,0.00,VWS V13.01,2013-03-28 02:17:00,
2013-03-27 21:18:00,38.7,36.3,30.50,North,0,0.0,0.0,91,0.00,,,0.00,VWS V13.01,2013-03-28 02:18:00,
2013-03-27 21:19:00,38.7,36.3,30.50,North,0,0.0,0.0,91,0.00,,,0.00,VWS V13.01,2013-03-28 02:19:00,
2013-03-27 21:22:00,38.3,35.9,30.50,North,0,0.0,0.0,91,0.00,,,0.00,VWS V13.01,2013-03-28 02:22:00,
2013-03-27 21:23:00,38.3,35.9,30.50,North,0,0.0,0.0,91,0.00,,,0.00,VWS V13.01,2013-03-28 02:23:00,
2013-03-27 21:24:00,38.3,35.9,30.50,North,0,0.0,0.0,91,0.00,,,0.00,VWS V13.01,2013-03-28 02:24:00,
2013-03-27 21:28:00,38.3,35.9,30.53,North,0,0.0,0.0,91,0.00,,,0.00,VWS V13.01,2013-03-28 02:28:00,
2013-03-27 21:29:00,38.3,35.9,30.53,North,0,0.0,0.0,91,0.00,,,0.00,VWS V13.01,2013-03-28 02:29:00,
2013-03-27 21:33:00,38.8,36.4,30.53,North,0,0.0,0.0,91,0.00,,,0.00,VWS V13.01,2013-03-28 02:33:00,
2013-03-27 21:34:00,39.0,36.6,30.53,North,0,0.0,0.0,91,0.00,,,0.00,VWS V13.01,2013-03-28 02:34:00,
2013-03-27 21:38:00,39.4,35.2,30.53,North,0,0.0,0.0,85,0.00,,,0.00,VWS V13.01,2013-03-28 02:38:00,
2013-03-27 21:39:00,39.6,35.4,30.53,North,0,0.0,0.0,85,0.00,,,0.00,VWS V13.01,2013-03-28 02:39:00,
2013-03-27 21:43:00,39.7,35.6,30.53,North,0,0.0,0.0,85,0.00,,,0.00,VWS V13.01,2013-03-28 02:43:00,
2013-03-27 21:44:00,39.7,35.6,30.53,North,0,0.0,0.0,85,0.00,,,0.00,VWS V13.01,2013-03-28 02:44:00,
2013-03-27 21:48:00,39.9,35.8,30.53,North,0,0.0,0.0,85,0.00,,,0.00,VWS V13.01,2013-03-28 02:48:00,
2013-03-27 21:49:00,39.9,35.8,30.53,North,0,0.0,0.0,85,0.00,,,0.00,VWS V13.01,2013-03-28 02:49:00,
2013-03-27 21:53:00,39.7,35.6,30.53,North,0,0.0,0.0,85,0.00,,,0.00,VWS V13.01,2013-03-28 02:53:00,
2013-03-27 21:54:00,39.9,35.8,30.53,North,0,0.0,0.0,85,0.00,,,0.00,VWS V13.01,2013-03-28 02:54:00,
2013-03-27 21:58:00,39.9,35.8,30.53,North,0,0.0,0.0,85,0.00,,,0.00,VWS V13.01,2013-03-28 02:58:00,
2013-03-27 21:59:00,39.9,35.8,30.53,North,0,0.0,0.0,85,0.00,,,0.00,VWS V13.01,2013-03-28 02:59:00,
2013-03-27 22:03:00,39.9,35.8,30.53,North,0,0.0,0.0,85,0.00,,,0.00,VWS V13.01,2013-03-28 03:03:00,
2013-03-27 22:04:00,39.9,35.8,30.53,North,0,0.0,0.0,85,0.00,,,0.00,VWS V13.01,2013-03-28 03:04:00,
2013-03-27 22:08:00,40.1,36.0,30.53,North,0,0.0,0.0,85,0.00,,,0.00,VWS V13.01,2013-03-28 03:08:00,
2013-03-27 22:09:00,40.1,36.0,30.53,North,0,0.0,0.0,85,0.00,,,0.00,VWS V13.01,2013-03-28 03:09:00,
2013-03-27 22:13:00,40.5,36.3,30.53,North,0,0.0,0.0,85,0.00,,,0.00,VWS V13.01,2013-03-28 03:13:00,
2013-03-27 22:14:00,40.5,36.3,30.53,North,0,0.0,0.0,85,0.00,,,0.00,VWS V13.01,2013-03-28 03:14:00,
2013-03-27 22:18:00,40.6,36.5,30.53,North,0,0.0,0.0,85,0.00,,,0.00,VWS V13.01,2013-03-28 03:18:00,
2013-03-27 22:19:00,40.6,36.5,30.53,North,0,0.0,0.0,85,0.00,,,0.00,VWS V13.01,2013-03-28 03:19:00,
2013-03-27 22:23:00,40.6,36.5,30.53,North,0,0.0,0.0,85,0.00,,,0.00,VWS V13.01,2013-03-28 03:23:00,
2013-03-27 22:24:00,40.6,36.5,30.53,North,0,0.0,0.0,85,0.00,,,0.00,VWS V13.01,2013-03-28 03:24:00,
2013-03-27 22:28:00,40.6,36.5,30.53,North,0,0.0,0.0,85,0.00,,,0.00,VWS V13.01,2013-03-28 03:28:00,
2013-03-27 22:29:00,40.8,36.7,30.53,North,0,0.0,0.0,85,0.00,,,0.00,VWS V13.01,2013-03-28 03:29:00,
2013-03-27 22:33:00,41.0,36.8,30.53,North,0,0.0,0.0,85,0.00,,,0.00,VWS V13.01,2013-03-28 03:33:00,
2013-03-27 22:34:00,41.0,36.8,30.53,North,0,0.0,0.0,85,0.00,,,0.00,VWS V13.01,2013-03-28 03:34:00,
2013-03-27 22:38:00,41.0,36.8,30.53,North,0,0.0,0.0,85,0.00,,,0.00,VWS V13.01,2013-03-28 03:38:00,
2013-03-27 22:39:00,41.0,36.8,30.53,North,0,0.0,0.0,85,0.00,,,0.00,VWS V13.01,2013-03-28 03:39:00,
2013-03-27 22:43:00,41.2,37.0,30.53,North,0,0.0,0.0,85,0.00,,,0.00,VWS V13.01,2013-03-28 03:43:00,
2013-03-27 22:44:00,41.2,37.0,30.53,North,0,0.0,0.0,85,0.00,,,0.00,VWS V13.01,2013-03-28 03:44:00,
2013-03-27 22:45:00,41.2,37.0,30.53,North,0,0.0,0.0,85,0.00,,,0.00,VWS V13.01,2013-03-28 03:45:00,
2013-03-27 22:48:00,41.4,37.2,30.53,North,0,0.0,0.0,85,0.00,,,0.00,VWS V13.01,2013-03-28 03:48:00,
2013-03-27 22:49:00,41.4,37.2,30.53,North,0,0.0,0.0,85,0.00,,,0.00,VWS V13.01,2013-03-28 03:49:00,
2013-03-27 22:50:00,41.4,37.2,30.53,North,0,0.0,0.0,85,0.00,,,0.00,VWS V13.01,2013-03-28 03:50:00,
2013-03-27 22:53:00,41.2,37.0,30.53,North,0,0.0,0.0,85,0.00,,,0.00,VWS V13.01,2013-03-28 03:53:00,
2013-03-27 22:54:00,41.2,37.0,30.53,North,0,0.0,0.0,85,0.00,,,0.00,VWS V13.01,2013-03-28 03:54:00,
2013-03-27 22:55:00,41.2,37.0,30.53,North,0,0.0,0.0,85,0.00,,,0.00,VWS V13.01,2013-03-28 03:55:00,
2013-03-27 22:58:00,41.2,37.0,30.53,North,0,0.0,0.0,85,0.00,,,0.00,VWS V13.01,2013-03-28 03:58:00,
2013-03-27 22:59:00,41.2,37.0,30.53,North,0,0.0,0.0,85,0.00,,,0.00,VWS V13.01,2013-03-28 03:59:00,
2013-03-27 23:00:00,41.2,37.0,30.53,North,0,0.0,0.0,85,0.00,,,0.00,VWS V13.01,2013-03-28 04:00:00,
2013-03-27 23:05:00,41.4,37.2,30.53,North,0,0.0,0.0,85,0.00,,,0.00,VWS V13.01,2013-03-28 04:05:00,
2013-03-27 23:10:00,41.5,37.4,30.53,North,0,0.0,0.0,85,0.00,,,0.00,VWS V13.01,2013-03-28 04:10:00,
2013-03-27 23:15:00,41.5,37.4,30.53,North,0,0.0,0.0,85,0.00,,,0.00,VWS V13.01,2013-03-28 04:15:00,
2013-03-27 23:20:00,41.5,37.4,30.53,North,0,0.0,0.0,85,0.00,,,0.00,VWS V13.01,2013-03-28 04:20:00,
2013-03-27 23:25:00,41.4,37.2,30.53,North,0,0.0,0.0,85,0.00,,,0.00,VWS V13.01,2013-03-28 04:25:00,
2013-03-27 23:30:00,41.5,37.4,30.53,North,0,0.0,0.0,85,0.00,,,0.00,VWS V13.01,2013-03-28 04:30:00,
2013-03-27 23:35:00,41.5,37.4,30.53,North,0,0.0,0.0,85,0.00,,,0.00,VWS V13.01,2013-03-28 04:35:00,
2013-03-27 23:40:00,41.7,37.5,30.53,North,0,0.0,0.0,85,0.00,,,0.00,VWS V13.01,2013-03-28 04:40:00,
2013-03-27 23:45:00,41.5,37.4,30.53,North,0,0.0,0.0,85,0.00,,,0.00,VWS V13.01,2013-03-28 04:45:00,
2013-03-27 23:50:00,41.7,37.5,30.53,North,0,0.0,0.0,85,0.00,,,0.00,VWS V13.01,2013-03-28 04:50:00,
2013-03-27 23:55:00,42.1,37.9,30.53,North,0,0.0,0.0,85,0.00,,,0.00,VWS V13.01,2013-03-28 04:55:00,